<?xml version="1.0" encoding="UTF-8" standalone="no" ?><gpx xmlns="http://www.topografix.com/GPX/1/1" xmlns:gpxx="http://www.garmin.com/xmlschemas/GpxExtensions/v3" xmlns:wptx1="http://www.garmin.com/xmlschemas/WaypointExtension/v1" xmlns:gpxtpx="http://www.garmin.com/xmlschemas/TrackPointExtension/v1" creator="GuideVTT.com" version="1.1" xmlns:xsi="http://www.w3.org/2001/XMLSchema-instance" xsi:schemaLocation="http://www.topografix.com/GPX/1/1 http://www.topografix.com/GPX/1/1/gpx.xsd http://www.garmin.com/xmlschemas/GpxExtensions/v3 http://www8.garmin.com/xmlschemas/GpxExtensionsv3.xsd http://www.garmin.com/xmlschemas/WaypointExtension/v1 http://www8.garmin.com/xmlschemas/WaypointExtensionv1.xsd http://www.garmin.com/xmlschemas/TrackPointExtension/v1 http://www.garmin.com/xmlschemas/TrackPointExtensionv1.xsd">
<metadata><link href="http://www.garmin.com"><text>Garmin International</text></link><time>2013-06-22T15:13:50Z</time></metadata>
<trk><name>tour_du_moleson_17.06.07.gpx</name><extensions><gpxx:TrackExtension><gpxx:DisplayColor>Cyan</gpxx:DisplayColor></gpxx:TrackExtension></extensions><trkseg>
<trkpt lat="46.54269464" lon="6.98033346"><ele>1229.182861</ele><time>2007-06-17T11:48:12Z</time></trkpt>
<trkpt lat="46.54269448" lon="6.98033354"><ele>1229.182861</ele><time>2007-06-17T11:48:13Z</time></trkpt>
<trkpt lat="46.54269372" lon="6.98033430"><ele>1230.625</ele><time>2007-06-17T11:48:16Z</time></trkpt>
<trkpt lat="46.54269163" lon="6.98034226"><ele>1231.586182</ele><time>2007-06-17T11:48:20Z</time></trkpt>
<trkpt lat="46.54263002" lon="6.98034167"><ele>1230.625</ele><time>2007-06-17T11:48:25Z</time></trkpt>
<trkpt lat="46.54232584" lon="6.97999248"><ele>1232.066895</ele><time>2007-06-17T11:48:40Z</time></trkpt>
<trkpt lat="46.54208427" lon="6.97976642"><ele>1231.586182</ele><time>2007-06-17T11:48:53Z</time></trkpt>
<trkpt lat="46.54210858" lon="6.97973164"><ele>1231.105713</ele><time>2007-06-17T11:49:14Z</time></trkpt>
<trkpt lat="46.54214462" lon="6.97969023"><ele>1229.182861</ele><time>2007-06-17T11:49:50Z</time></trkpt>
<trkpt lat="46.54214437" lon="6.97969065"><ele>1233.028076</ele><time>2007-06-17T11:49:51Z</time></trkpt>
<trkpt lat="46.54214404" lon="6.97969115"><ele>1233.028076</ele><time>2007-06-17T11:49:52Z</time></trkpt>
<trkpt lat="46.54213523" lon="6.97970440"><ele>1227.260254</ele><time>2007-06-17T11:50:07Z</time></trkpt>
<trkpt lat="46.54213473" lon="6.97970498"><ele>1230.144287</ele><time>2007-06-17T11:50:08Z</time></trkpt>
<trkpt lat="46.54213138" lon="6.97970808"><ele>1226.298828</ele><time>2007-06-17T11:50:15Z</time></trkpt>
<trkpt lat="46.54213096" lon="6.97970834"><ele>1231.586182</ele><time>2007-06-17T11:50:16Z</time></trkpt>
<trkpt lat="46.54212962" lon="6.97970926"><ele>1235.431396</ele><time>2007-06-17T11:50:19Z</time></trkpt>
<trkpt lat="46.54212920" lon="6.97970943"><ele>1230.144287</ele><time>2007-06-17T11:50:20Z</time></trkpt>
<trkpt lat="46.54212509" lon="6.97971127"><ele>1233.989502</ele><time>2007-06-17T11:50:29Z</time></trkpt>
<trkpt lat="46.54212484" lon="6.97971135"><ele>1233.989502</ele><time>2007-06-17T11:50:30Z</time></trkpt>
<trkpt lat="46.54212434" lon="6.97971144"><ele>1231.105713</ele><time>2007-06-17T11:50:33Z</time></trkpt>
<trkpt lat="46.54191898" lon="6.97960733"><ele>1229.182861</ele><time>2007-06-17T11:50:52Z</time></trkpt>
<trkpt lat="46.54174933" lon="6.97952754"><ele>1229.663574</ele><time>2007-06-17T11:51:02Z</time></trkpt>
<trkpt lat="46.54174732" lon="6.97950969"><ele>1232.547607</ele><time>2007-06-17T11:51:08Z</time></trkpt>
<trkpt lat="46.54174657" lon="6.97950499"><ele>1230.625</ele><time>2007-06-17T11:51:10Z</time></trkpt>
<trkpt lat="46.54174573" lon="6.97950088"><ele>1225.337402</ele><time>2007-06-17T11:51:12Z</time></trkpt>
<trkpt lat="46.54174539" lon="6.97949904"><ele>1232.066895</ele><time>2007-06-17T11:51:13Z</time></trkpt>
<trkpt lat="46.54174372" lon="6.97949267"><ele>1226.298828</ele><time>2007-06-17T11:51:18Z</time></trkpt>
<trkpt lat="46.54174346" lon="6.97949183"><ele>1232.547607</ele><time>2007-06-17T11:51:19Z</time></trkpt>
<trkpt lat="46.54174338" lon="6.97949116"><ele>1227.740723</ele><time>2007-06-17T11:51:20Z</time></trkpt>
<trkpt lat="46.54174623" lon="6.97948714"><ele>1231.105713</ele><time>2007-06-17T11:51:21Z</time></trkpt>
<trkpt lat="46.54155395" lon="6.97940206"><ele>1228.22168</ele><time>2007-06-17T11:51:40Z</time></trkpt>
<trkpt lat="46.54144046" lon="6.97931254"><ele>1226.779541</ele><time>2007-06-17T11:51:43Z</time></trkpt>
<trkpt lat="46.54114952" lon="6.97916603"><ele>1224.376221</ele><time>2007-06-17T11:51:54Z</time></trkpt>
<trkpt lat="46.54114198" lon="6.97917944"><ele>1228.22168</ele><time>2007-06-17T11:52:02Z</time></trkpt>
<trkpt lat="46.54114324" lon="6.97917826"><ele>1225.337402</ele><time>2007-06-17T11:52:03Z</time></trkpt>
<trkpt lat="46.54114944" lon="6.97917189"><ele>1221.9729</ele><time>2007-06-17T11:52:07Z</time></trkpt>
<trkpt lat="46.54115095" lon="6.97917013"><ele>1226.298828</ele><time>2007-06-17T11:52:08Z</time></trkpt>
<trkpt lat="46.54115514" lon="6.97916603"><ele>1224.856934</ele><time>2007-06-17T11:52:11Z</time></trkpt>
<trkpt lat="46.54116075" lon="6.97916100"><ele>1221.492188</ele><time>2007-06-17T11:52:15Z</time></trkpt>
<trkpt lat="46.54116226" lon="6.97915982"><ele>1225.337402</ele><time>2007-06-17T11:52:16Z</time></trkpt>
<trkpt lat="46.54116352" lon="6.97915873"><ele>1225.337402</ele><time>2007-06-17T11:52:17Z</time></trkpt>
<trkpt lat="46.54097744" lon="6.97914843"><ele>1221.9729</ele><time>2007-06-17T11:52:41Z</time></trkpt>
<trkpt lat="46.54027982" lon="6.97894164"><ele>1218.608398</ele><time>2007-06-17T11:52:55Z</time></trkpt>
<trkpt lat="46.54004772" lon="6.97883846"><ele>1217.166504</ele><time>2007-06-17T11:52:59Z</time></trkpt>
<trkpt lat="46.53984446" lon="6.97872866"><ele>1215.724609</ele><time>2007-06-17T11:53:07Z</time></trkpt>
<trkpt lat="46.53983247" lon="6.97870217"><ele>1219.089111</ele><time>2007-06-17T11:53:12Z</time></trkpt>
<trkpt lat="46.53982887" lon="6.97869387"><ele>1213.321289</ele><time>2007-06-17T11:53:14Z</time></trkpt>
<trkpt lat="46.53982577" lon="6.97868616"><ele>1217.646973</ele><time>2007-06-17T11:53:16Z</time></trkpt>
<trkpt lat="46.53964556" lon="6.97862045"><ele>1213.321289</ele><time>2007-06-17T11:53:26Z</time></trkpt>
<trkpt lat="46.53951379" lon="6.97856756"><ele>1208.995117</ele><time>2007-06-17T11:53:28Z</time></trkpt>
<trkpt lat="46.53927189" lon="6.97845918"><ele>1204.188721</ele><time>2007-06-17T11:53:31Z</time></trkpt>
<trkpt lat="46.53908724" lon="6.97837654"><ele>1200.823975</ele><time>2007-06-17T11:53:33Z</time></trkpt>
<trkpt lat="46.53830462" lon="6.97799516"><ele>1198.901367</ele><time>2007-06-17T11:53:42Z</time></trkpt>
<trkpt lat="46.53821192" lon="6.97785384"><ele>1198.901367</ele><time>2007-06-17T11:53:44Z</time></trkpt>
<trkpt lat="46.53798904" lon="6.97786474"><ele>1199.862793</ele><time>2007-06-17T11:53:50Z</time></trkpt>
<trkpt lat="46.53786650" lon="6.97786273"><ele>1203.227295</ele><time>2007-06-17T11:53:57Z</time></trkpt>
<trkpt lat="46.53770096" lon="6.97786516"><ele>1206.111084</ele><time>2007-06-17T11:54:06Z</time></trkpt>
<trkpt lat="46.53743315" lon="6.97791008"><ele>1209.47583</ele><time>2007-06-17T11:54:21Z</time></trkpt>
<trkpt lat="46.53724674" lon="6.97812122"><ele>1212.359863</ele><time>2007-06-17T11:54:36Z</time></trkpt>
<trkpt lat="46.53709042" lon="6.97839565"><ele>1214.763184</ele><time>2007-06-17T11:54:51Z</time></trkpt>
<trkpt lat="46.53700660" lon="6.97854753"><ele>1216.205078</ele><time>2007-06-17T11:55:00Z</time></trkpt>
<trkpt lat="46.53686075" lon="6.97877434"><ele>1219.569824</ele><time>2007-06-17T11:55:15Z</time></trkpt>
<trkpt lat="46.53673477" lon="6.97898498"><ele>1222.453613</ele><time>2007-06-17T11:55:27Z</time></trkpt>
<trkpt lat="46.53681105" lon="6.97938186"><ele>1224.856934</ele><time>2007-06-17T11:55:44Z</time></trkpt>
<trkpt lat="46.53702378" lon="6.97937910"><ele>1226.779541</ele><time>2007-06-17T11:55:58Z</time></trkpt>
<trkpt lat="46.53714289" lon="6.97919520"><ele>1230.144287</ele><time>2007-06-17T11:56:11Z</time></trkpt>
<trkpt lat="46.53721992" lon="6.97913183"><ele>1232.547607</ele><time>2007-06-17T11:56:18Z</time></trkpt>
<trkpt lat="46.53728949" lon="6.97907902"><ele>1233.989502</ele><time>2007-06-17T11:56:24Z</time></trkpt>
<trkpt lat="46.53754706" lon="6.97898632"><ele>1236.392822</ele><time>2007-06-17T11:56:44Z</time></trkpt>
<trkpt lat="46.53776692" lon="6.97903996"><ele>1238.796143</ele><time>2007-06-17T11:57:01Z</time></trkpt>
<trkpt lat="46.53789835" lon="6.97916938"><ele>1242.160645</ele><time>2007-06-17T11:57:13Z</time></trkpt>
<trkpt lat="46.53803095" lon="6.97929360"><ele>1244.563965</ele><time>2007-06-17T11:57:25Z</time></trkpt>
<trkpt lat="46.53816163" lon="6.97936133"><ele>1245.525391</ele><time>2007-06-17T11:57:37Z</time></trkpt>
<trkpt lat="46.53824343" lon="6.97938756"><ele>1246.486816</ele><time>2007-06-17T11:57:43Z</time></trkpt>
<trkpt lat="46.53850059" lon="6.97954103"><ele>1248.889893</ele><time>2007-06-17T11:58:04Z</time></trkpt>
<trkpt lat="46.53858248" lon="6.97959443"><ele>1250.332031</ele><time>2007-06-17T11:58:11Z</time></trkpt>
<trkpt lat="46.53869966" lon="6.97966358"><ele>1253.21582</ele><time>2007-06-17T11:58:21Z</time></trkpt>
<trkpt lat="46.53891474" lon="6.97977489"><ele>1255.619141</ele><time>2007-06-17T11:58:39Z</time></trkpt>
<trkpt lat="46.53895338" lon="6.97979668"><ele>1256.580322</ele><time>2007-06-17T11:58:42Z</time></trkpt>
<trkpt lat="46.53910249" lon="6.97986156"><ele>1259.944824</ele><time>2007-06-17T11:58:55Z</time></trkpt>
<trkpt lat="46.53931313" lon="6.97997035"><ele>1262.348389</ele><time>2007-06-17T11:59:13Z</time></trkpt>
<trkpt lat="46.53951564" lon="6.98006608"><ele>1265.232422</ele><time>2007-06-17T11:59:30Z</time></trkpt>
<trkpt lat="46.53971437" lon="6.98013866"><ele>1268.116211</ele><time>2007-06-17T11:59:47Z</time></trkpt>
<trkpt lat="46.53991076" lon="6.98020094"><ele>1269.55835</ele><time>2007-06-17T12:00:04Z</time></trkpt>
<trkpt lat="46.54007790" lon="6.98024486"><ele>1272.442139</ele><time>2007-06-17T12:00:19Z</time></trkpt>
<trkpt lat="46.54018418" lon="6.98025936"><ele>1274.364746</ele><time>2007-06-17T12:00:28Z</time></trkpt>
<trkpt lat="46.54029105" lon="6.98030043"><ele>1276.287598</ele><time>2007-06-17T12:00:44Z</time></trkpt>
<trkpt lat="46.54029088" lon="6.98018359"><ele>1276.287598</ele><time>2007-06-17T12:01:11Z</time></trkpt>
<trkpt lat="46.54035584" lon="6.98032860"><ele>1277.249023</ele><time>2007-06-17T12:01:36Z</time></trkpt>
<trkpt lat="46.54041778" lon="6.98039238"><ele>1278.210205</ele><time>2007-06-17T12:01:42Z</time></trkpt>
<trkpt lat="46.54052909" lon="6.98050034"><ele>1280.132813</ele><time>2007-06-17T12:01:56Z</time></trkpt>
<trkpt lat="46.54063890" lon="6.98065038"><ele>1283.016602</ele><time>2007-06-17T12:02:10Z</time></trkpt>
<trkpt lat="46.54074803" lon="6.98079706"><ele>1284.939453</ele><time>2007-06-17T12:02:25Z</time></trkpt>
<trkpt lat="46.54078097" lon="6.98084325"><ele>1285.419922</ele><time>2007-06-17T12:02:30Z</time></trkpt>
<trkpt lat="46.54090997" lon="6.98102958"><ele>1287.342529</ele><time>2007-06-17T12:02:48Z</time></trkpt>
<trkpt lat="46.54093386" lon="6.98109378"><ele>1288.303955</ele><time>2007-06-17T12:02:53Z</time></trkpt>
<trkpt lat="46.54104936" lon="6.98130316"><ele>1290.226563</ele><time>2007-06-17T12:03:09Z</time></trkpt>
<trkpt lat="46.54112622" lon="6.98146393"><ele>1291.668457</ele><time>2007-06-17T12:03:23Z</time></trkpt>
<trkpt lat="46.54127056" lon="6.98166233"><ele>1293.591309</ele><time>2007-06-17T12:03:38Z</time></trkpt>
<trkpt lat="46.54138925" lon="6.98190230"><ele>1296.475342</ele><time>2007-06-17T12:03:53Z</time></trkpt>
<trkpt lat="46.54153534" lon="6.98217614"><ele>1300.320557</ele><time>2007-06-17T12:04:12Z</time></trkpt>
<trkpt lat="46.54167306" lon="6.98239189"><ele>1303.204346</ele><time>2007-06-17T12:04:28Z</time></trkpt>
<trkpt lat="46.54174657" lon="6.98253404"><ele>1305.607666</ele><time>2007-06-17T12:04:42Z</time></trkpt>
<trkpt lat="46.54181815" lon="6.98272507"><ele>1307.049561</ele><time>2007-06-17T12:04:59Z</time></trkpt>
<trkpt lat="46.54193407" lon="6.98291089"><ele>1309.453125</ele><time>2007-06-17T12:05:16Z</time></trkpt>
<trkpt lat="46.54200993" lon="6.98304207"><ele>1312.817627</ele><time>2007-06-17T12:05:29Z</time></trkpt>
<trkpt lat="46.54204773" lon="6.98310309"><ele>1314.259521</ele><time>2007-06-17T12:05:34Z</time></trkpt>
<trkpt lat="46.54212434" lon="6.98323988"><ele>1316.182129</ele><time>2007-06-17T12:05:47Z</time></trkpt>
<trkpt lat="46.54218276" lon="6.98342085"><ele>1319.066162</ele><time>2007-06-17T12:06:02Z</time></trkpt>
<trkpt lat="46.54221964" lon="6.98349830"><ele>1320.027344</ele><time>2007-06-17T12:06:17Z</time></trkpt>
<trkpt lat="46.54227655" lon="6.98358916"><ele>1321.469238</ele><time>2007-06-17T12:06:31Z</time></trkpt>
<trkpt lat="46.54230924" lon="6.98362486"><ele>1324.834229</ele><time>2007-06-17T12:06:51Z</time></trkpt>
<trkpt lat="46.54230899" lon="6.98362553"><ele>1321.469238</ele><time>2007-06-17T12:06:52Z</time></trkpt>
<trkpt lat="46.54231536" lon="6.98362478"><ele>1320.027344</ele><time>2007-06-17T12:06:57Z</time></trkpt>
<trkpt lat="46.54231595" lon="6.98362386"><ele>1323.39209</ele><time>2007-06-17T12:06:58Z</time></trkpt>
<trkpt lat="46.54231628" lon="6.98362277"><ele>1321.949951</ele><time>2007-06-17T12:06:59Z</time></trkpt>
<trkpt lat="46.54235132" lon="6.98371455"><ele>1322.911377</ele><time>2007-06-17T12:07:10Z</time></trkpt>
<trkpt lat="46.54236088" lon="6.98374229"><ele>1323.39209</ele><time>2007-06-17T12:07:12Z</time></trkpt>
<trkpt lat="46.54236557" lon="6.98377264"><ele>1323.39209</ele><time>2007-06-17T12:07:14Z</time></trkpt>
<trkpt lat="46.54237244" lon="6.98379862"><ele>1324.353516</ele><time>2007-06-17T12:07:16Z</time></trkpt>
<trkpt lat="46.54245526" lon="6.98398512"><ele>1325.79541</ele><time>2007-06-17T12:07:30Z</time></trkpt>
<trkpt lat="46.54255198" lon="6.98411068"><ele>1328.19873</ele><time>2007-06-17T12:07:44Z</time></trkpt>
<trkpt lat="46.54257319" lon="6.98422157"><ele>1330.121338</ele><time>2007-06-17T12:07:52Z</time></trkpt>
<trkpt lat="46.54259926" lon="6.98440614"><ele>1331.563232</ele><time>2007-06-17T12:08:05Z</time></trkpt>
<trkpt lat="46.54269867" lon="6.98452986"><ele>1332.524658</ele><time>2007-06-17T12:08:19Z</time></trkpt>
<trkpt lat="46.54271199" lon="6.98453346"><ele>1332.043945</ele><time>2007-06-17T12:08:20Z</time></trkpt>
<trkpt lat="46.54288525" lon="6.98451159"><ele>1335.408447</ele><time>2007-06-17T12:08:36Z</time></trkpt>
<trkpt lat="46.54298918" lon="6.98452919"><ele>1334.927979</ele><time>2007-06-17T12:08:47Z</time></trkpt>
<trkpt lat="46.54320996" lon="6.98469783"><ele>1335.88916</ele><time>2007-06-17T12:09:02Z</time></trkpt>
<trkpt lat="46.54340300" lon="6.98490629"><ele>1337.811768</ele><time>2007-06-17T12:09:17Z</time></trkpt>
<trkpt lat="46.54358958" lon="6.98514668"><ele>1339.253662</ele><time>2007-06-17T12:09:32Z</time></trkpt>
<trkpt lat="46.54368362" lon="6.98533989"><ele>1342.618652</ele><time>2007-06-17T12:09:44Z</time></trkpt>
<trkpt lat="46.54382972" lon="6.98566535"><ele>1344.541016</ele><time>2007-06-17T12:10:04Z</time></trkpt>
<trkpt lat="46.54401287" lon="6.98574867"><ele>1346.463867</ele><time>2007-06-17T12:10:18Z</time></trkpt>
<trkpt lat="46.54418645" lon="6.98580164"><ele>1349.347656</ele><time>2007-06-17T12:10:32Z</time></trkpt>
<trkpt lat="46.54437178" lon="6.98594447"><ele>1351.750977</ele><time>2007-06-17T12:10:48Z</time></trkpt>
<trkpt lat="46.54455224" lon="6.98610348"><ele>1355.115479</ele><time>2007-06-17T12:11:05Z</time></trkpt>
<trkpt lat="46.54456247" lon="6.98611387"><ele>1355.115479</ele><time>2007-06-17T12:11:06Z</time></trkpt>
<trkpt lat="46.54475785" lon="6.98625670"><ele>1357.999756</ele><time>2007-06-17T12:11:24Z</time></trkpt>
<trkpt lat="46.54492775" lon="6.98640405"><ele>1360.402832</ele><time>2007-06-17T12:11:40Z</time></trkpt>
<trkpt lat="46.54502573" lon="6.98648469"><ele>1361.844971</ele><time>2007-06-17T12:11:49Z</time></trkpt>
<trkpt lat="46.54521097" lon="6.98664268"><ele>1365.209473</ele><time>2007-06-17T12:12:07Z</time></trkpt>
<trkpt lat="46.54541038" lon="6.98683480"><ele>1367.612549</ele><time>2007-06-17T12:12:26Z</time></trkpt>
<trkpt lat="46.54554013" lon="6.98696145"><ele>1370.496582</ele><time>2007-06-17T12:12:38Z</time></trkpt>
<trkpt lat="46.54573895" lon="6.98720042"><ele>1373.380859</ele><time>2007-06-17T12:12:59Z</time></trkpt>
<trkpt lat="46.54590759" lon="6.98738507"><ele>1376.745361</ele><time>2007-06-17T12:13:16Z</time></trkpt>
<trkpt lat="46.54608068" lon="6.98760769"><ele>1379.62915</ele><time>2007-06-17T12:13:35Z</time></trkpt>
<trkpt lat="46.54622896" lon="6.98773745"><ele>1382.032471</ele><time>2007-06-17T12:13:49Z</time></trkpt>
<trkpt lat="46.54643876" lon="6.98786267"><ele>1385.396973</ele><time>2007-06-17T12:14:08Z</time></trkpt>
<trkpt lat="46.54658829" lon="6.98798086"><ele>1388.28125</ele><time>2007-06-17T12:14:22Z</time></trkpt>
<trkpt lat="46.54664529" lon="6.98804406"><ele>1389.723145</ele><time>2007-06-17T12:14:28Z</time></trkpt>
<trkpt lat="46.54667948" lon="6.98808219"><ele>1389.723145</ele><time>2007-06-17T12:14:32Z</time></trkpt>
<trkpt lat="46.54682374" lon="6.98819594"><ele>1393.568359</ele><time>2007-06-17T12:14:45Z</time></trkpt>
<trkpt lat="46.54686204" lon="6.98822443"><ele>1394.529541</ele><time>2007-06-17T12:14:49Z</time></trkpt>
<trkpt lat="46.54701887" lon="6.98835284"><ele>1397.413574</ele><time>2007-06-17T12:15:04Z</time></trkpt>
<trkpt lat="46.54705164" lon="6.98840724"><ele>1396.932861</ele><time>2007-06-17T12:15:09Z</time></trkpt>
<trkpt lat="46.54717578" lon="6.98853456"><ele>1399.816895</ele><time>2007-06-17T12:15:20Z</time></trkpt>
<trkpt lat="46.54718516" lon="6.98857144"><ele>1400.297607</ele><time>2007-06-17T12:15:22Z</time></trkpt>
<trkpt lat="46.54718835" lon="6.98860564"><ele>1400.778076</ele><time>2007-06-17T12:15:24Z</time></trkpt>
<trkpt lat="46.54716547" lon="6.98873774"><ele>1402.219971</ele><time>2007-06-17T12:15:31Z</time></trkpt>
<trkpt lat="46.54700453" lon="6.98864286"><ele>1402.700684</ele><time>2007-06-17T12:15:45Z</time></trkpt>
<trkpt lat="46.54681452" lon="6.98854974"><ele>1406.06543</ele><time>2007-06-17T12:16:02Z</time></trkpt>
<trkpt lat="46.54669155" lon="6.98852065"><ele>1407.988281</ele><time>2007-06-17T12:16:13Z</time></trkpt>
<trkpt lat="46.54644974" lon="6.98842149"><ele>1410.87207</ele><time>2007-06-17T12:16:33Z</time></trkpt>
<trkpt lat="46.54640447" lon="6.98839618"><ele>1411.352783</ele><time>2007-06-17T12:16:37Z</time></trkpt>
<trkpt lat="46.54627866" lon="6.98832585"><ele>1415.197998</ele><time>2007-06-17T12:16:48Z</time></trkpt>
<trkpt lat="46.54625678" lon="6.98833013"><ele>1414.717285</ele><time>2007-06-17T12:16:53Z</time></trkpt>
<trkpt lat="46.54640439" lon="6.98840087"><ele>1411.352783</ele><time>2007-06-17T12:16:58Z</time></trkpt>
<trkpt lat="46.54668896" lon="6.98852560"><ele>1407.507568</ele><time>2007-06-17T12:17:03Z</time></trkpt>
<trkpt lat="46.54686606" lon="6.98859684"><ele>1406.06543</ele><time>2007-06-17T12:17:06Z</time></trkpt>
<trkpt lat="46.54692926" lon="6.98862677"><ele>1405.104248</ele><time>2007-06-17T12:17:07Z</time></trkpt>
<trkpt lat="46.54708508" lon="6.98877253"><ele>1403.181396</ele><time>2007-06-17T12:17:10Z</time></trkpt>
<trkpt lat="46.54707704" lon="6.98905508"><ele>1404.623535</ele><time>2007-06-17T12:17:15Z</time></trkpt>
<trkpt lat="46.54685726" lon="6.98931928"><ele>1404.143066</ele><time>2007-06-17T12:17:26Z</time></trkpt>
<trkpt lat="46.54661628" lon="6.98961323"><ele>1405.584961</ele><time>2007-06-17T12:17:37Z</time></trkpt>
<trkpt lat="46.54645686" lon="6.98985144"><ele>1406.546143</ele><time>2007-06-17T12:17:46Z</time></trkpt>
<trkpt lat="46.54629157" lon="6.99015018"><ele>1409.430176</ele><time>2007-06-17T12:17:59Z</time></trkpt>
<trkpt lat="46.54607012" lon="6.99050322"><ele>1410.87207</ele><time>2007-06-17T12:18:13Z</time></trkpt>
<trkpt lat="46.54603575" lon="6.99058637"><ele>1410.87207</ele><time>2007-06-17T12:18:16Z</time></trkpt>
<trkpt lat="46.54604305" lon="6.99117042"><ele>1413.755859</ele><time>2007-06-17T12:18:36Z</time></trkpt>
<trkpt lat="46.54586845" lon="6.99133345"><ele>1417.120605</ele><time>2007-06-17T12:18:49Z</time></trkpt>
<trkpt lat="46.54566024" lon="6.99143462"><ele>1418.5625</ele><time>2007-06-17T12:19:02Z</time></trkpt>
<trkpt lat="46.54549219" lon="6.99147795"><ele>1419.523926</ele><time>2007-06-17T12:19:13Z</time></trkpt>
<trkpt lat="46.54533008" lon="6.99156093"><ele>1421.446533</ele><time>2007-06-17T12:19:26Z</time></trkpt>
<trkpt lat="46.54526663" lon="6.99158759"><ele>1422.407959</ele><time>2007-06-17T12:19:31Z</time></trkpt>
<trkpt lat="46.54519865" lon="6.99162070"><ele>1422.888672</ele><time>2007-06-17T12:19:37Z</time></trkpt>
<trkpt lat="46.54503554" lon="6.99157946"><ele>1425.291748</ele><time>2007-06-17T12:19:50Z</time></trkpt>
<trkpt lat="46.54492029" lon="6.99153042"><ele>1428.656494</ele><time>2007-06-17T12:20:00Z</time></trkpt>
<trkpt lat="46.54490068" lon="6.99153235"><ele>1429.136963</ele><time>2007-06-17T12:20:02Z</time></trkpt>
<trkpt lat="46.54486497" lon="6.99151953"><ele>1429.136963</ele><time>2007-06-17T12:20:06Z</time></trkpt>
<trkpt lat="46.54477612" lon="6.99149899"><ele>1430.098389</ele><time>2007-06-17T12:20:13Z</time></trkpt>
<trkpt lat="46.54462072" lon="6.99152246"><ele>1431.540283</ele><time>2007-06-17T12:20:24Z</time></trkpt>
<trkpt lat="46.54440539" lon="6.99154182"><ele>1431.059814</ele><time>2007-06-17T12:20:38Z</time></trkpt>
<trkpt lat="46.54439039" lon="6.99153679"><ele>1431.540283</ele><time>2007-06-17T12:20:39Z</time></trkpt>
<trkpt lat="46.54421370" lon="6.99141953"><ele>1432.501709</ele><time>2007-06-17T12:20:51Z</time></trkpt>
<trkpt lat="46.54401555" lon="6.99139212"><ele>1433.943604</ele><time>2007-06-17T12:21:04Z</time></trkpt>
<trkpt lat="46.54381572" lon="6.99148013"><ele>1434.905029</ele><time>2007-06-17T12:21:13Z</time></trkpt>
<trkpt lat="46.54362814" lon="6.99150167"><ele>1435.385498</ele><time>2007-06-17T12:21:27Z</time></trkpt>
<trkpt lat="46.54353434" lon="6.99156085"><ele>1434.905029</ele><time>2007-06-17T12:21:36Z</time></trkpt>
<trkpt lat="46.54338942" lon="6.99166328"><ele>1436.347168</ele><time>2007-06-17T12:21:47Z</time></trkpt>
<trkpt lat="46.54326067" lon="6.99176864"><ele>1438.269775</ele><time>2007-06-17T12:21:59Z</time></trkpt>
<trkpt lat="46.54324726" lon="6.99177425"><ele>1439.230957</ele><time>2007-06-17T12:22:11Z</time></trkpt>
<trkpt lat="46.54321264" lon="6.99181784"><ele>1437.30835</ele><time>2007-06-17T12:22:17Z</time></trkpt>
<trkpt lat="46.54320317" lon="6.99180108"><ele>1437.30835</ele><time>2007-06-17T12:22:31Z</time></trkpt>
<trkpt lat="46.54323695" lon="6.99181122"><ele>1436.827637</ele><time>2007-06-17T12:22:41Z</time></trkpt>
<trkpt lat="46.54322656" lon="6.99182295"><ele>1436.347168</ele><time>2007-06-17T12:22:48Z</time></trkpt>
<trkpt lat="46.54316654" lon="6.99189562"><ele>1435.866211</ele><time>2007-06-17T12:22:55Z</time></trkpt>
<trkpt lat="46.54312924" lon="6.99204599"><ele>1435.385498</ele><time>2007-06-17T12:23:02Z</time></trkpt>
<trkpt lat="46.54313453" lon="6.99215094"><ele>1433.943604</ele><time>2007-06-17T12:23:05Z</time></trkpt>
<trkpt lat="46.54315112" lon="6.99227499"><ele>1432.020996</ele><time>2007-06-17T12:23:09Z</time></trkpt>
<trkpt lat="46.54315146" lon="6.99241019"><ele>1430.579102</ele><time>2007-06-17T12:23:13Z</time></trkpt>
<trkpt lat="46.54312707" lon="6.99252670"><ele>1431.059814</ele><time>2007-06-17T12:23:19Z</time></trkpt>
<trkpt lat="46.54296228" lon="6.99275703"><ele>1432.020996</ele><time>2007-06-17T12:23:36Z</time></trkpt>
<trkpt lat="46.54282364" lon="6.99301519"><ele>1432.020996</ele><time>2007-06-17T12:23:49Z</time></trkpt>
<trkpt lat="46.54276773" lon="6.99316833"><ele>1432.020996</ele><time>2007-06-17T12:23:56Z</time></trkpt>
<trkpt lat="46.54252508" lon="6.99345357"><ele>1432.020996</ele><time>2007-06-17T12:24:08Z</time></trkpt>
<trkpt lat="46.54225275" lon="6.99360075"><ele>1430.098389</ele><time>2007-06-17T12:24:22Z</time></trkpt>
<trkpt lat="46.54219299" lon="6.99380318"><ele>1430.579102</ele><time>2007-06-17T12:24:32Z</time></trkpt>
<trkpt lat="46.54215535" lon="6.99382598"><ele>1432.020996</ele><time>2007-06-17T12:24:40Z</time></trkpt>
<trkpt lat="46.54211235" lon="6.99383813"><ele>1430.579102</ele><time>2007-06-17T12:24:53Z</time></trkpt>
<trkpt lat="46.54211227" lon="6.99383738"><ele>1430.579102</ele><time>2007-06-17T12:24:54Z</time></trkpt>
<trkpt lat="46.54211202" lon="6.99383209"><ele>1432.020996</ele><time>2007-06-17T12:24:56Z</time></trkpt>
<trkpt lat="46.54213347" lon="6.99386579"><ele>1431.059814</ele><time>2007-06-17T12:25:14Z</time></trkpt>
<trkpt lat="46.54219374" lon="6.99395665"><ele>1432.982178</ele><time>2007-06-17T12:25:21Z</time></trkpt>
<trkpt lat="46.54221277" lon="6.99397333"><ele>1431.540283</ele><time>2007-06-17T12:25:23Z</time></trkpt>
<trkpt lat="46.54226666" lon="6.99400174"><ele>1432.020996</ele><time>2007-06-17T12:25:47Z</time></trkpt>
<trkpt lat="46.54230396" lon="6.99402178"><ele>1432.501709</ele><time>2007-06-17T12:25:57Z</time></trkpt>
<trkpt lat="46.54245475" lon="6.99407316"><ele>1432.982178</ele><time>2007-06-17T12:26:10Z</time></trkpt>
<trkpt lat="46.54249557" lon="6.99414097"><ele>1433.462891</ele><time>2007-06-17T12:26:21Z</time></trkpt>
<trkpt lat="46.54264645" lon="6.99450843"><ele>1430.579102</ele><time>2007-06-17T12:26:33Z</time></trkpt>
<trkpt lat="46.54283848" lon="6.99502274"><ele>1430.098389</ele><time>2007-06-17T12:26:43Z</time></trkpt>
<trkpt lat="46.54298298" lon="6.99515442"><ele>1427.695068</ele><time>2007-06-17T12:26:47Z</time></trkpt>
<trkpt lat="46.54315464" lon="6.99526079"><ele>1424.330566</ele><time>2007-06-17T12:26:53Z</time></trkpt>
<trkpt lat="46.54318205" lon="6.99529105"><ele>1423.849854</ele><time>2007-06-17T12:26:54Z</time></trkpt>
<trkpt lat="46.54323243" lon="6.99538945"><ele>1422.407959</ele><time>2007-06-17T12:26:56Z</time></trkpt>
<trkpt lat="46.54371346" lon="6.99569606"><ele>1418.081787</ele><time>2007-06-17T12:27:05Z</time></trkpt>
<trkpt lat="46.54402728" lon="6.99586915"><ele>1416.639893</ele><time>2007-06-17T12:27:10Z</time></trkpt>
<trkpt lat="46.54440028" lon="6.99607593"><ele>1415.197998</ele><time>2007-06-17T12:27:19Z</time></trkpt>
<trkpt lat="46.54432434" lon="6.99623443"><ele>1412.794678</ele><time>2007-06-17T12:27:22Z</time></trkpt>
<trkpt lat="46.54425862" lon="6.99660315"><ele>1409.430176</ele><time>2007-06-17T12:27:27Z</time></trkpt>
<trkpt lat="46.54436214" lon="6.99688914"><ele>1406.06543</ele><time>2007-06-17T12:27:30Z</time></trkpt>
<trkpt lat="46.54450740" lon="6.99716482"><ele>1403.181396</ele><time>2007-06-17T12:27:33Z</time></trkpt>
<trkpt lat="46.54468669" lon="6.99749918"><ele>1400.297607</ele><time>2007-06-17T12:27:37Z</time></trkpt>
<trkpt lat="46.54513202" lon="6.99824500"><ele>1400.778076</ele><time>2007-06-17T12:27:47Z</time></trkpt>
<trkpt lat="46.54521718" lon="6.99840568"><ele>1403.181396</ele><time>2007-06-17T12:27:52Z</time></trkpt>
<trkpt lat="46.54538708" lon="6.99868002"><ele>1406.06543</ele><time>2007-06-17T12:28:10Z</time></trkpt>
<trkpt lat="46.54555019" lon="6.99889242"><ele>1407.988281</ele><time>2007-06-17T12:28:26Z</time></trkpt>
<trkpt lat="46.54569553" lon="6.99900272"><ele>1409.430176</ele><time>2007-06-17T12:28:43Z</time></trkpt>
<trkpt lat="46.54568505" lon="6.99896056"><ele>1409.430176</ele><time>2007-06-17T12:29:19Z</time></trkpt>
<trkpt lat="46.54576317" lon="6.99899208"><ele>1410.391357</ele><time>2007-06-17T12:29:31Z</time></trkpt>
<trkpt lat="46.54585370" lon="6.99900616"><ele>1410.87207</ele><time>2007-06-17T12:29:48Z</time></trkpt>
<trkpt lat="46.54609946" lon="6.99918159"><ele>1412.794678</ele><time>2007-06-17T12:30:04Z</time></trkpt>
<trkpt lat="46.54632267" lon="6.99930472"><ele>1416.15918</ele><time>2007-06-17T12:30:20Z</time></trkpt>
<trkpt lat="46.54656406" lon="6.99943355"><ele>1419.043213</ele><time>2007-06-17T12:30:37Z</time></trkpt>
<trkpt lat="46.54676473" lon="6.99953414"><ele>1421.927246</ele><time>2007-06-17T12:30:52Z</time></trkpt>
<trkpt lat="46.54697134" lon="6.99963824"><ele>1424.330566</ele><time>2007-06-17T12:31:08Z</time></trkpt>
<trkpt lat="46.54735414" lon="6.99997469"><ele>1420.966064</ele><time>2007-06-17T12:31:22Z</time></trkpt>
<trkpt lat="46.54745716" lon="7.00007326"><ele>1419.523926</ele><time>2007-06-17T12:31:24Z</time></trkpt>
<trkpt lat="46.54779118" lon="7.00036562"><ele>1420.966064</ele><time>2007-06-17T12:31:31Z</time></trkpt>
<trkpt lat="46.54805135" lon="7.00055187"><ele>1420.485352</ele><time>2007-06-17T12:31:38Z</time></trkpt>
<trkpt lat="46.54827129" lon="7.00082302"><ele>1420.966064</ele><time>2007-06-17T12:31:45Z</time></trkpt>
<trkpt lat="46.54880974" lon="7.00126416"><ele>1420.485352</ele><time>2007-06-17T12:31:57Z</time></trkpt>
<trkpt lat="46.54904360" lon="7.00144353"><ele>1423.369385</ele><time>2007-06-17T12:32:11Z</time></trkpt>
<trkpt lat="46.54921467" lon="7.00151864"><ele>1426.733887</ele><time>2007-06-17T12:32:24Z</time></trkpt>
<trkpt lat="46.54945130" lon="7.00158753"><ele>1428.656494</ele><time>2007-06-17T12:32:41Z</time></trkpt>
<trkpt lat="46.54967434" lon="7.00169415"><ele>1431.059814</ele><time>2007-06-17T12:32:59Z</time></trkpt>
<trkpt lat="46.54988799" lon="7.00180010"><ele>1433.462891</ele><time>2007-06-17T12:33:15Z</time></trkpt>
<trkpt lat="46.55016853" lon="7.00190655"><ele>1436.347168</ele><time>2007-06-17T12:33:33Z</time></trkpt>
<trkpt lat="46.55035419" lon="7.00201417"><ele>1439.71167</ele><time>2007-06-17T12:33:46Z</time></trkpt>
<trkpt lat="46.55064044" lon="7.00201568"><ele>1442.11499</ele><time>2007-06-17T12:34:07Z</time></trkpt>
<trkpt lat="46.55082517" lon="7.00193220"><ele>1445.479492</ele><time>2007-06-17T12:34:22Z</time></trkpt>
<trkpt lat="46.55109532" lon="7.00205793"><ele>1447.4021</ele><time>2007-06-17T12:34:42Z</time></trkpt>
<trkpt lat="46.55127897" lon="7.00212423"><ele>1447.882813</ele><time>2007-06-17T12:34:54Z</time></trkpt>
<trkpt lat="46.55150075" lon="7.00217033"><ele>1451.247314</ele><time>2007-06-17T12:35:09Z</time></trkpt>
<trkpt lat="46.55177652" lon="7.00218164"><ele>1454.612061</ele><time>2007-06-17T12:35:28Z</time></trkpt>
<trkpt lat="46.55197199" lon="7.00201736"><ele>1456.534668</ele><time>2007-06-17T12:35:45Z</time></trkpt>
<trkpt lat="46.55205564" lon="7.00191803"><ele>1459.89917</ele><time>2007-06-17T12:35:53Z</time></trkpt>
<trkpt lat="46.55226979" lon="7.00187193"><ele>1462.783203</ele><time>2007-06-17T12:36:09Z</time></trkpt>
<trkpt lat="46.55238773" lon="7.00202700"><ele>1464.705811</ele><time>2007-06-17T12:36:21Z</time></trkpt>
<trkpt lat="46.55241044" lon="7.00209565"><ele>1466.147705</ele><time>2007-06-17T12:36:25Z</time></trkpt>
<trkpt lat="46.55231179" lon="7.00237158"><ele>1468.55127</ele><time>2007-06-17T12:36:42Z</time></trkpt>
<trkpt lat="46.55219276" lon="7.00261910"><ele>1471.915771</ele><time>2007-06-17T12:36:58Z</time></trkpt>
<trkpt lat="46.55231539" lon="7.00268506"><ele>1473.35791</ele><time>2007-06-17T12:37:09Z</time></trkpt>
<trkpt lat="46.55241304" lon="7.00271876"><ele>1475.760986</ele><time>2007-06-17T12:37:18Z</time></trkpt>
<trkpt lat="46.55257858" lon="7.00282428"><ele>1479.125488</ele><time>2007-06-17T12:37:33Z</time></trkpt>
<trkpt lat="46.55262309" lon="7.00284893"><ele>1479.606201</ele><time>2007-06-17T12:37:37Z</time></trkpt>
<trkpt lat="46.55272007" lon="7.00297030"><ele>1480.567627</ele><time>2007-06-17T12:37:46Z</time></trkpt>
<trkpt lat="46.55301989" lon="7.00308052"><ele>1480.567627</ele><time>2007-06-17T12:38:01Z</time></trkpt>
<trkpt lat="46.55308343" lon="7.00311229"><ele>1480.086914</ele><time>2007-06-17T12:38:11Z</time></trkpt>
<trkpt lat="46.55309424" lon="7.00315302"><ele>1481.04834</ele><time>2007-06-17T12:38:23Z</time></trkpt>
<trkpt lat="46.55315392" lon="7.00330222"><ele>1483.932129</ele><time>2007-06-17T12:38:37Z</time></trkpt>
<trkpt lat="46.55315987" lon="7.00332577"><ele>1484.413086</ele><time>2007-06-17T12:38:39Z</time></trkpt>
<trkpt lat="46.55319457" lon="7.00352250"><ele>1486.816162</ele><time>2007-06-17T12:38:52Z</time></trkpt>
<trkpt lat="46.55323899" lon="7.00380782"><ele>1489.700195</ele><time>2007-06-17T12:39:10Z</time></trkpt>
<trkpt lat="46.55329825" lon="7.00412189"><ele>1491.622803</ele><time>2007-06-17T12:39:30Z</time></trkpt>
<trkpt lat="46.55330144" lon="7.00413303"><ele>1492.103516</ele><time>2007-06-17T12:39:31Z</time></trkpt>
<trkpt lat="46.55345449" lon="7.00439036"><ele>1490.661377</ele><time>2007-06-17T12:39:43Z</time></trkpt>
<trkpt lat="46.55366513" lon="7.00482555"><ele>1487.777588</ele><time>2007-06-17T12:39:53Z</time></trkpt>
<trkpt lat="46.55372389" lon="7.00493426"><ele>1486.335693</ele><time>2007-06-17T12:39:55Z</time></trkpt>
<trkpt lat="46.55394785" lon="7.00512327"><ele>1484.893799</ele><time>2007-06-17T12:40:01Z</time></trkpt>
<trkpt lat="46.55402396" lon="7.00539015"><ele>1485.85498</ele><time>2007-06-17T12:40:13Z</time></trkpt>
<trkpt lat="46.55413007" lon="7.00581419"><ele>1486.335693</ele><time>2007-06-17T12:40:28Z</time></trkpt>
<trkpt lat="46.55425220" lon="7.00604486"><ele>1487.777588</ele><time>2007-06-17T12:40:41Z</time></trkpt>
<trkpt lat="46.55426896" lon="7.00609038"><ele>1487.777588</ele><time>2007-06-17T12:40:43Z</time></trkpt>
<trkpt lat="46.55431322" lon="7.00623505"><ele>1488.258301</ele><time>2007-06-17T12:40:49Z</time></trkpt>
<trkpt lat="46.55445169" lon="7.00679362"><ele>1488.258301</ele><time>2007-06-17T12:41:05Z</time></trkpt>
<trkpt lat="46.55448563" lon="7.00730500"><ele>1487.777588</ele><time>2007-06-17T12:41:17Z</time></trkpt>
<trkpt lat="46.55454749" lon="7.00755126"><ele>1485.85498</ele><time>2007-06-17T12:41:22Z</time></trkpt>
<trkpt lat="46.55460860" lon="7.00781948"><ele>1485.374268</ele><time>2007-06-17T12:41:26Z</time></trkpt>
<trkpt lat="46.55466224" lon="7.00824997"><ele>1482.970703</ele><time>2007-06-17T12:41:36Z</time></trkpt>
<trkpt lat="46.55463944" lon="7.00829322"><ele>1482.970703</ele><time>2007-06-17T12:41:58Z</time></trkpt>
<trkpt lat="46.55463148" lon="7.00835777"><ele>1482.490234</ele><time>2007-06-17T12:42:11Z</time></trkpt>
<trkpt lat="46.55461228" lon="7.00847520"><ele>1480.567627</ele><time>2007-06-17T12:42:14Z</time></trkpt>
<trkpt lat="46.55451396" lon="7.00867418"><ele>1480.086914</ele><time>2007-06-17T12:42:18Z</time></trkpt>
<trkpt lat="46.55442679" lon="7.00899806"><ele>1479.606201</ele><time>2007-06-17T12:42:26Z</time></trkpt>
<trkpt lat="46.55443484" lon="7.00916704"><ele>1480.086914</ele><time>2007-06-17T12:42:31Z</time></trkpt>
<trkpt lat="46.55439050" lon="7.00954992"><ele>1480.086914</ele><time>2007-06-17T12:42:41Z</time></trkpt>
<trkpt lat="46.55443995" lon="7.00970910"><ele>1480.086914</ele><time>2007-06-17T12:42:47Z</time></trkpt>
<trkpt lat="46.55467305" lon="7.01014680"><ele>1480.086914</ele><time>2007-06-17T12:43:02Z</time></trkpt>
<trkpt lat="46.55469778" lon="7.01022802"><ele>1480.086914</ele><time>2007-06-17T12:43:04Z</time></trkpt>
<trkpt lat="46.55475997" lon="7.01049104"><ele>1476.241699</ele><time>2007-06-17T12:43:09Z</time></trkpt>
<trkpt lat="46.55502015" lon="7.01127450"><ele>1476.722412</ele><time>2007-06-17T12:43:21Z</time></trkpt>
<trkpt lat="46.55508678" lon="7.01140366"><ele>1479.125488</ele><time>2007-06-17T12:43:25Z</time></trkpt>
<trkpt lat="46.55518577" lon="7.01174162"><ele>1481.528809</ele><time>2007-06-17T12:43:38Z</time></trkpt>
<trkpt lat="46.55532114" lon="7.01225166"><ele>1479.125488</ele><time>2007-06-17T12:43:51Z</time></trkpt>
<trkpt lat="46.55540479" lon="7.01261032"><ele>1480.086914</ele><time>2007-06-17T12:44:02Z</time></trkpt>
<trkpt lat="46.55541904" lon="7.01263606"><ele>1480.086914</ele><time>2007-06-17T12:44:08Z</time></trkpt>
<trkpt lat="46.55540345" lon="7.01267445"><ele>1480.086914</ele><time>2007-06-17T12:44:22Z</time></trkpt>
<trkpt lat="46.55542273" lon="7.01290252"><ele>1480.086914</ele><time>2007-06-17T12:44:35Z</time></trkpt>
<trkpt lat="46.55540396" lon="7.01295105"><ele>1480.086914</ele><time>2007-06-17T12:44:39Z</time></trkpt>
<trkpt lat="46.55511302" lon="7.01309790"><ele>1478.64502</ele><time>2007-06-17T12:44:53Z</time></trkpt>
<trkpt lat="46.55504085" lon="7.01307594"><ele>1479.606201</ele><time>2007-06-17T12:44:57Z</time></trkpt>
<trkpt lat="46.55476199" lon="7.01343938"><ele>1479.125488</ele><time>2007-06-17T12:45:13Z</time></trkpt>
<trkpt lat="46.55462544" lon="7.01390206"><ele>1481.528809</ele><time>2007-06-17T12:45:26Z</time></trkpt>
<trkpt lat="46.55464523" lon="7.01433976"><ele>1482.009521</ele><time>2007-06-17T12:45:41Z</time></trkpt>
<trkpt lat="46.55454598" lon="7.01490437"><ele>1481.528809</ele><time>2007-06-17T12:45:56Z</time></trkpt>
<trkpt lat="46.55454054" lon="7.01501685"><ele>1481.04834</ele><time>2007-06-17T12:45:58Z</time></trkpt>
<trkpt lat="46.55454196" lon="7.01539789"><ele>1476.241699</ele><time>2007-06-17T12:46:04Z</time></trkpt>
<trkpt lat="46.55454288" lon="7.01546998"><ele>1475.760986</ele><time>2007-06-17T12:46:05Z</time></trkpt>
<trkpt lat="46.55460365" lon="7.01577147"><ele>1475.280273</ele><time>2007-06-17T12:46:11Z</time></trkpt>
<trkpt lat="46.55469912" lon="7.01601564"><ele>1473.35791</ele><time>2007-06-17T12:46:15Z</time></trkpt>
<trkpt lat="46.55474933" lon="7.01615998"><ele>1472.877197</ele><time>2007-06-17T12:46:17Z</time></trkpt>
<trkpt lat="46.55483826" lon="7.01659743"><ele>1469.031982</ele><time>2007-06-17T12:46:27Z</time></trkpt>
<trkpt lat="46.55483667" lon="7.01663012"><ele>1469.031982</ele><time>2007-06-17T12:46:28Z</time></trkpt>
<trkpt lat="46.55483625" lon="7.01672349"><ele>1466.147705</ele><time>2007-06-17T12:46:30Z</time></trkpt>
<trkpt lat="46.55478110" lon="7.01697369"><ele>1466.628418</ele><time>2007-06-17T12:46:35Z</time></trkpt>
<trkpt lat="46.55470465" lon="7.01719883"><ele>1468.55127</ele><time>2007-06-17T12:46:44Z</time></trkpt>
<trkpt lat="46.55468764" lon="7.01726857"><ele>1469.512695</ele><time>2007-06-17T12:46:52Z</time></trkpt>
<trkpt lat="46.55465403" lon="7.01744182"><ele>1472.877197</ele><time>2007-06-17T12:47:04Z</time></trkpt>
<trkpt lat="46.55461715" lon="7.01762446"><ele>1475.760986</ele><time>2007-06-17T12:47:20Z</time></trkpt>
<trkpt lat="46.55458597" lon="7.01787835"><ele>1477.683594</ele><time>2007-06-17T12:47:40Z</time></trkpt>
<trkpt lat="46.55456786" lon="7.01802168"><ele>1479.606201</ele><time>2007-06-17T12:47:57Z</time></trkpt>
<trkpt lat="46.55455956" lon="7.01803509"><ele>1479.125488</ele><time>2007-06-17T12:48:15Z</time></trkpt>
<trkpt lat="46.55457197" lon="7.01806359"><ele>1479.125488</ele><time>2007-06-17T12:48:27Z</time></trkpt>
<trkpt lat="46.55454540" lon="7.01835126"><ele>1482.009521</ele><time>2007-06-17T12:48:41Z</time></trkpt>
<trkpt lat="46.55460156" lon="7.01876038"><ele>1483.932129</ele><time>2007-06-17T12:48:58Z</time></trkpt>
<trkpt lat="46.55470189" lon="7.01940176"><ele>1483.932129</ele><time>2007-06-17T12:49:12Z</time></trkpt>
<trkpt lat="46.55470499" lon="7.01990467"><ele>1485.85498</ele><time>2007-06-17T12:49:26Z</time></trkpt>
<trkpt lat="46.55467163" lon="7.02043039"><ele>1485.85498</ele><time>2007-06-17T12:49:37Z</time></trkpt>
<trkpt lat="46.55472360" lon="7.02084688"><ele>1486.335693</ele><time>2007-06-17T12:49:48Z</time></trkpt>
<trkpt lat="46.55480985" lon="7.02116976"><ele>1489.219482</ele><time>2007-06-17T12:49:58Z</time></trkpt>
<trkpt lat="46.55483239" lon="7.02167778"><ele>1492.584229</ele><time>2007-06-17T12:50:12Z</time></trkpt>
<trkpt lat="46.55487045" lon="7.02213904"><ele>1494.987305</ele><time>2007-06-17T12:50:27Z</time></trkpt>
<trkpt lat="46.55485569" lon="7.02219956"><ele>1495.468018</ele><time>2007-06-17T12:50:38Z</time></trkpt>
<trkpt lat="46.55481949" lon="7.02227818"><ele>1496.909912</ele><time>2007-06-17T12:50:45Z</time></trkpt>
<trkpt lat="46.55475587" lon="7.02245252"><ele>1498.83252</ele><time>2007-06-17T12:50:58Z</time></trkpt>
<trkpt lat="46.55470482" lon="7.02244825"><ele>1499.793945</ele><time>2007-06-17T12:51:09Z</time></trkpt>
<trkpt lat="46.55460063" lon="7.02233274"><ele>1497.871338</ele><time>2007-06-17T12:51:22Z</time></trkpt>
<trkpt lat="46.55452478" lon="7.02224297"><ele>1496.429443</ele><time>2007-06-17T12:51:30Z</time></trkpt>
<trkpt lat="46.55437667" lon="7.02213166"><ele>1494.987305</ele><time>2007-06-17T12:51:38Z</time></trkpt>
<trkpt lat="46.55416737" lon="7.02216863"><ele>1490.661377</ele><time>2007-06-17T12:51:42Z</time></trkpt>
<trkpt lat="46.55406008" lon="7.02221506"><ele>1491.14209</ele><time>2007-06-17T12:51:44Z</time></trkpt>
<trkpt lat="46.55391005" lon="7.02230307"><ele>1491.622803</ele><time>2007-06-17T12:51:48Z</time></trkpt>
<trkpt lat="46.55368508" lon="7.02248622"><ele>1492.103516</ele><time>2007-06-17T12:52:00Z</time></trkpt>
<trkpt lat="46.55359657" lon="7.02252813"><ele>1492.584229</ele><time>2007-06-17T12:52:04Z</time></trkpt>
<trkpt lat="46.55329809" lon="7.02275896"><ele>1492.103516</ele><time>2007-06-17T12:52:15Z</time></trkpt>
<trkpt lat="46.55312986" lon="7.02287673"><ele>1492.103516</ele><time>2007-06-17T12:52:20Z</time></trkpt>
<trkpt lat="46.55274496" lon="7.02302459"><ele>1493.54541</ele><time>2007-06-17T12:52:33Z</time></trkpt>
<trkpt lat="46.55263122" lon="7.02307463"><ele>1493.54541</ele><time>2007-06-17T12:52:38Z</time></trkpt>
<trkpt lat="46.55248630" lon="7.02314453"><ele>1497.390625</ele><time>2007-06-17T12:52:45Z</time></trkpt>
<trkpt lat="46.55238748" lon="7.02319952"><ele>1496.909912</ele><time>2007-06-17T12:52:50Z</time></trkpt>
<trkpt lat="46.55220953" lon="7.02336648"><ele>1494.026123</ele><time>2007-06-17T12:53:00Z</time></trkpt>
<trkpt lat="46.55218975" lon="7.02338937"><ele>1494.506592</ele><time>2007-06-17T12:53:01Z</time></trkpt>
<trkpt lat="46.55213032" lon="7.02347696"><ele>1494.026123</ele><time>2007-06-17T12:53:08Z</time></trkpt>
<trkpt lat="46.55209302" lon="7.02349464"><ele>1494.506592</ele><time>2007-06-17T12:53:20Z</time></trkpt>
<trkpt lat="46.55200618" lon="7.02360814"><ele>1495.468018</ele><time>2007-06-17T12:53:57Z</time></trkpt>
<trkpt lat="46.55185372" lon="7.02372364"><ele>1496.909912</ele><time>2007-06-17T12:54:09Z</time></trkpt>
<trkpt lat="46.55179898" lon="7.02376387"><ele>1497.390625</ele><time>2007-06-17T12:54:20Z</time></trkpt>
<trkpt lat="46.55171826" lon="7.02385129"><ele>1499.313232</ele><time>2007-06-17T12:54:30Z</time></trkpt>
<trkpt lat="46.55164006" lon="7.02387820"><ele>1502.197266</ele><time>2007-06-17T12:54:40Z</time></trkpt>
<trkpt lat="46.55157678" lon="7.02388776"><ele>1502.197266</ele><time>2007-06-17T12:54:57Z</time></trkpt>
<trkpt lat="46.55157083" lon="7.02389924"><ele>1503.158691</ele><time>2007-06-17T12:55:11Z</time></trkpt>
<trkpt lat="46.55152489" lon="7.02399203"><ele>1502.677979</ele><time>2007-06-17T12:55:16Z</time></trkpt>
<trkpt lat="46.55146035" lon="7.02408599"><ele>1499.313232</ele><time>2007-06-17T12:55:21Z</time></trkpt>
<trkpt lat="46.55125022" lon="7.02419713"><ele>1499.313232</ele><time>2007-06-17T12:55:32Z</time></trkpt>
<trkpt lat="46.55116246" lon="7.02424726"><ele>1499.793945</ele><time>2007-06-17T12:55:42Z</time></trkpt>
<trkpt lat="46.55109222" lon="7.02441112"><ele>1498.83252</ele><time>2007-06-17T12:55:51Z</time></trkpt>
<trkpt lat="46.55091528" lon="7.02439369"><ele>1498.351807</ele><time>2007-06-17T12:56:02Z</time></trkpt>
<trkpt lat="46.55088527" lon="7.02442529"><ele>1498.83252</ele><time>2007-06-17T12:56:21Z</time></trkpt>
<trkpt lat="46.55082978" lon="7.02448036"><ele>1501.236084</ele><time>2007-06-17T12:56:36Z</time></trkpt>
<trkpt lat="46.55082257" lon="7.02450885"><ele>1500.274902</ele><time>2007-06-17T12:56:38Z</time></trkpt>
<trkpt lat="46.55072509" lon="7.02463509"><ele>1499.793945</ele><time>2007-06-17T12:56:49Z</time></trkpt>
<trkpt lat="46.55066977" lon="7.02470742"><ele>1501.236084</ele><time>2007-06-17T12:56:57Z</time></trkpt>
<trkpt lat="46.55065008" lon="7.02470792"><ele>1500.755371</ele><time>2007-06-17T12:57:00Z</time></trkpt>
<trkpt lat="46.55059735" lon="7.02469778"><ele>1498.83252</ele><time>2007-06-17T12:57:03Z</time></trkpt>
<trkpt lat="46.55047682" lon="7.02472092"><ele>1499.313232</ele><time>2007-06-17T12:57:13Z</time></trkpt>
<trkpt lat="46.55046953" lon="7.02475218"><ele>1498.83252</ele><time>2007-06-17T12:57:16Z</time></trkpt>
<trkpt lat="46.55040792" lon="7.02489727"><ele>1501.236084</ele><time>2007-06-17T12:57:30Z</time></trkpt>
<trkpt lat="46.55032662" lon="7.02509400"><ele>1501.716797</ele><time>2007-06-17T12:57:45Z</time></trkpt>
<trkpt lat="46.55023676" lon="7.02517689"><ele>1502.677979</ele><time>2007-06-17T12:57:55Z</time></trkpt>
<trkpt lat="46.55011129" lon="7.02520623"><ele>1504.600586</ele><time>2007-06-17T12:58:10Z</time></trkpt>
<trkpt lat="46.55011070" lon="7.02520665"><ele>1504.600586</ele><time>2007-06-17T12:58:11Z</time></trkpt>
<trkpt lat="46.54998212" lon="7.02531628"><ele>1503.639404</ele><time>2007-06-17T12:58:23Z</time></trkpt>
<trkpt lat="46.54996066" lon="7.02531729"><ele>1504.120117</ele><time>2007-06-17T12:58:25Z</time></trkpt>
<trkpt lat="46.54981314" lon="7.02539977"><ele>1504.600586</ele><time>2007-06-17T12:58:41Z</time></trkpt>
<trkpt lat="46.54979319" lon="7.02539415"><ele>1506.04248</ele><time>2007-06-17T12:58:44Z</time></trkpt>
<trkpt lat="46.54972102" lon="7.02541527"><ele>1506.04248</ele><time>2007-06-17T12:58:57Z</time></trkpt>
<trkpt lat="46.54968875" lon="7.02547738"><ele>1505.562012</ele><time>2007-06-17T12:59:21Z</time></trkpt>
<trkpt lat="46.54951190" lon="7.02546942"><ele>1503.639404</ele><time>2007-06-17T12:59:30Z</time></trkpt>
<trkpt lat="46.54945004" lon="7.02543807"><ele>1505.081299</ele><time>2007-06-17T12:59:41Z</time></trkpt>
<trkpt lat="46.54935918" lon="7.02557067"><ele>1507.484619</ele><time>2007-06-17T12:59:57Z</time></trkpt>
<trkpt lat="46.54916237" lon="7.02563513"><ele>1510.849121</ele><time>2007-06-17T13:00:16Z</time></trkpt>
<trkpt lat="46.54914175" lon="7.02563404"><ele>1510.849121</ele><time>2007-06-17T13:00:26Z</time></trkpt>
<trkpt lat="46.54895576" lon="7.02559398"><ele>1508.926514</ele><time>2007-06-17T13:00:35Z</time></trkpt>
<trkpt lat="46.54886808" lon="7.02555425"><ele>1510.849121</ele><time>2007-06-17T13:00:41Z</time></trkpt>
<trkpt lat="46.54882140" lon="7.02556975"><ele>1511.329834</ele><time>2007-06-17T13:00:45Z</time></trkpt>
<trkpt lat="46.54863942" lon="7.02578969"><ele>1511.329834</ele><time>2007-06-17T13:00:58Z</time></trkpt>
<trkpt lat="46.54849752" lon="7.02598399"><ele>1513.73291</ele><time>2007-06-17T13:01:07Z</time></trkpt>
<trkpt lat="46.54842895" lon="7.02609790"><ele>1515.655762</ele><time>2007-06-17T13:01:17Z</time></trkpt>
<trkpt lat="46.54837162" lon="7.02621415"><ele>1516.136475</ele><time>2007-06-17T13:01:29Z</time></trkpt>
<trkpt lat="46.54824757" lon="7.02641364"><ele>1517.0979</ele><time>2007-06-17T13:01:40Z</time></trkpt>
<trkpt lat="46.54819686" lon="7.02650794"><ele>1518.059082</ele><time>2007-06-17T13:01:53Z</time></trkpt>
<trkpt lat="46.54819242" lon="7.02651674"><ele>1518.059082</ele><time>2007-06-17T13:01:54Z</time></trkpt>
<trkpt lat="46.54808915" lon="7.02678429"><ele>1519.501221</ele><time>2007-06-17T13:02:12Z</time></trkpt>
<trkpt lat="46.54804272" lon="7.02686316"><ele>1519.501221</ele><time>2007-06-17T13:02:27Z</time></trkpt>
<trkpt lat="46.54803593" lon="7.02687448"><ele>1519.981689</ele><time>2007-06-17T13:02:31Z</time></trkpt>
<trkpt lat="46.54793593" lon="7.02689426"><ele>1519.981689</ele><time>2007-06-17T13:02:43Z</time></trkpt>
<trkpt lat="46.54780769" lon="7.02682519"><ele>1522.38501</ele><time>2007-06-17T13:02:55Z</time></trkpt>
<trkpt lat="46.54769688" lon="7.02677842"><ele>1523.826904</ele><time>2007-06-17T13:03:09Z</time></trkpt>
<trkpt lat="46.54768196" lon="7.02677608"><ele>1524.307617</ele><time>2007-06-17T13:03:12Z</time></trkpt>
<trkpt lat="46.54762178" lon="7.02676333"><ele>1525.749512</ele><time>2007-06-17T13:03:17Z</time></trkpt>
<trkpt lat="46.54736563" lon="7.02670743"><ele>1527.19165</ele><time>2007-06-17T13:03:32Z</time></trkpt>
<trkpt lat="46.54708969" lon="7.02679535"><ele>1530.075439</ele><time>2007-06-17T13:03:46Z</time></trkpt>
<trkpt lat="46.54691284" lon="7.02678077"><ele>1531.036865</ele><time>2007-06-17T13:03:56Z</time></trkpt>
<trkpt lat="46.54688870" lon="7.02677767"><ele>1531.036865</ele><time>2007-06-17T13:03:58Z</time></trkpt>
<trkpt lat="46.54682122" lon="7.02674573"><ele>1531.998047</ele><time>2007-06-17T13:04:09Z</time></trkpt>
<trkpt lat="46.54659902" lon="7.02669360"><ele>1533.440186</ele><time>2007-06-17T13:04:24Z</time></trkpt>
<trkpt lat="46.54634639" lon="7.02659997"><ele>1533.920898</ele><time>2007-06-17T13:04:40Z</time></trkpt>
<trkpt lat="46.54620029" lon="7.02655169"><ele>1534.401611</ele><time>2007-06-17T13:04:50Z</time></trkpt>
<trkpt lat="46.54613407" lon="7.02656276"><ele>1535.843506</ele><time>2007-06-17T13:04:55Z</time></trkpt>
<trkpt lat="46.54589728" lon="7.02654147"><ele>1538.727539</ele><time>2007-06-17T13:05:11Z</time></trkpt>
<trkpt lat="46.54570475" lon="7.02652705"><ele>1539.208008</ele><time>2007-06-17T13:05:25Z</time></trkpt>
<trkpt lat="46.54550216" lon="7.02650802"><ele>1541.611328</ele><time>2007-06-17T13:05:40Z</time></trkpt>
<trkpt lat="46.54527208" lon="7.02648832"><ele>1543.533936</ele><time>2007-06-17T13:05:56Z</time></trkpt>
<trkpt lat="46.54501475" lon="7.02649369"><ele>1543.053223</ele><time>2007-06-17T13:06:13Z</time></trkpt>
<trkpt lat="46.54471703" lon="7.02644172"><ele>1545.456543</ele><time>2007-06-17T13:06:29Z</time></trkpt>
<trkpt lat="46.54459583" lon="7.02641406"><ele>1546.417969</ele><time>2007-06-17T13:06:35Z</time></trkpt>
<trkpt lat="46.54433314" lon="7.02634022"><ele>1545.937256</ele><time>2007-06-17T13:06:48Z</time></trkpt>
<trkpt lat="46.54401379" lon="7.02631465"><ele>1546.898438</ele><time>2007-06-17T13:07:04Z</time></trkpt>
<trkpt lat="46.54371363" lon="7.02637190"><ele>1547.37915</ele><time>2007-06-17T13:07:20Z</time></trkpt>
<trkpt lat="46.54366309" lon="7.02636578"><ele>1547.37915</ele><time>2007-06-17T13:07:33Z</time></trkpt>
<trkpt lat="46.54365362" lon="7.02637064"><ele>1547.37915</ele><time>2007-06-17T13:07:53Z</time></trkpt>
<trkpt lat="46.54363208" lon="7.02638078"><ele>1546.898438</ele><time>2007-06-17T13:08:04Z</time></trkpt>
<trkpt lat="46.54351884" lon="7.02623779"><ele>1550.263428</ele><time>2007-06-17T13:08:19Z</time></trkpt>
<trkpt lat="46.54350299" lon="7.02623553"><ele>1550.263428</ele><time>2007-06-17T13:08:46Z</time></trkpt>
<trkpt lat="46.54345245" lon="7.02613788"><ele>1550.263428</ele><time>2007-06-17T13:09:01Z</time></trkpt>
<trkpt lat="46.54344323" lon="7.02611214"><ele>1550.263428</ele><time>2007-06-17T13:09:25Z</time></trkpt>
<trkpt lat="46.54344114" lon="7.02611458"><ele>1550.263428</ele><time>2007-06-17T13:09:38Z</time></trkpt>
<trkpt lat="46.54344239" lon="7.02628632"><ele>1549.782715</ele><time>2007-06-17T13:09:53Z</time></trkpt>
<trkpt lat="46.54340409" lon="7.02644273"><ele>1547.37915</ele><time>2007-06-17T13:10:07Z</time></trkpt>
<trkpt lat="46.54344608" lon="7.02653308"><ele>1545.937256</ele><time>2007-06-17T13:10:15Z</time></trkpt>
<trkpt lat="46.54348623" lon="7.02656083"><ele>1544.495117</ele><time>2007-06-17T13:10:19Z</time></trkpt>
<trkpt lat="46.54348606" lon="7.02660207"><ele>1544.014648</ele><time>2007-06-17T13:10:29Z</time></trkpt>
<trkpt lat="46.54338405" lon="7.02670902"><ele>1541.611328</ele><time>2007-06-17T13:10:35Z</time></trkpt>
<trkpt lat="46.54316587" lon="7.02690876"><ele>1538.246826</ele><time>2007-06-17T13:10:43Z</time></trkpt>
<trkpt lat="46.54300737" lon="7.02696668"><ele>1537.2854</ele><time>2007-06-17T13:10:54Z</time></trkpt>
<trkpt lat="46.54299187" lon="7.02698822"><ele>1537.2854</ele><time>2007-06-17T13:11:05Z</time></trkpt>
<trkpt lat="46.54297426" lon="7.02699996"><ele>1536.804688</ele><time>2007-06-17T13:11:07Z</time></trkpt>
<trkpt lat="46.54283806" lon="7.02699769"><ele>1536.804688</ele><time>2007-06-17T13:11:22Z</time></trkpt>
<trkpt lat="46.54273739" lon="7.02710213"><ele>1536.804688</ele><time>2007-06-17T13:11:34Z</time></trkpt>
<trkpt lat="46.54259322" lon="7.02716609"><ele>1536.324219</ele><time>2007-06-17T13:11:49Z</time></trkpt>
<trkpt lat="46.54257964" lon="7.02717187"><ele>1536.324219</ele><time>2007-06-17T13:12:02Z</time></trkpt>
<trkpt lat="46.54240639" lon="7.02716106"><ele>1537.766113</ele><time>2007-06-17T13:12:19Z</time></trkpt>
<trkpt lat="46.54230924" lon="7.02718126"><ele>1538.727539</ele><time>2007-06-17T13:12:29Z</time></trkpt>
<trkpt lat="46.54219123" lon="7.02729894"><ele>1542.572754</ele><time>2007-06-17T13:12:46Z</time></trkpt>
<trkpt lat="46.54209919" lon="7.02735845"><ele>1544.97583</ele><time>2007-06-17T13:13:01Z</time></trkpt>
<trkpt lat="46.54196466" lon="7.02745694"><ele>1547.37915</ele><time>2007-06-17T13:13:20Z</time></trkpt>
<trkpt lat="46.54183642" lon="7.02755526"><ele>1550.263428</ele><time>2007-06-17T13:13:40Z</time></trkpt>
<trkpt lat="46.54178906" lon="7.02760580"><ele>1552.666504</ele><time>2007-06-17T13:13:48Z</time></trkpt>
<trkpt lat="46.54171505" lon="7.02768803"><ele>1554.108643</ele><time>2007-06-17T13:14:01Z</time></trkpt>
<trkpt lat="46.54158195" lon="7.02781417"><ele>1553.62793</ele><time>2007-06-17T13:14:17Z</time></trkpt>
<trkpt lat="46.54145907" lon="7.02788106"><ele>1553.62793</ele><time>2007-06-17T13:14:31Z</time></trkpt>
<trkpt lat="46.54137827" lon="7.02787947"><ele>1549.782715</ele><time>2007-06-17T13:14:41Z</time></trkpt>
<trkpt lat="46.54137223" lon="7.02787763"><ele>1549.782715</ele><time>2007-06-17T13:14:42Z</time></trkpt>
<trkpt lat="46.54134373" lon="7.02786354"><ele>1548.340576</ele><time>2007-06-17T13:14:46Z</time></trkpt>
<trkpt lat="46.54129746" lon="7.02779758"><ele>1546.417969</ele><time>2007-06-17T13:15:02Z</time></trkpt>
<trkpt lat="46.54130316" lon="7.02778769"><ele>1545.937256</ele><time>2007-06-17T13:15:03Z</time></trkpt>
<trkpt lat="46.54127886" lon="7.02773849"><ele>1545.937256</ele><time>2007-06-17T13:15:17Z</time></trkpt>
<trkpt lat="46.54125094" lon="7.02766364"><ele>1544.495117</ele><time>2007-06-17T13:15:33Z</time></trkpt>
<trkpt lat="46.54123854" lon="7.02761292"><ele>1543.533936</ele><time>2007-06-17T13:15:46Z</time></trkpt>
<trkpt lat="46.54121985" lon="7.02753204"><ele>1543.053223</ele><time>2007-06-17T13:15:59Z</time></trkpt>
<trkpt lat="46.54112689" lon="7.02731729"><ele>1542.572754</ele><time>2007-06-17T13:16:17Z</time></trkpt>
<trkpt lat="46.54112354" lon="7.02716659"><ele>1540.169434</ele><time>2007-06-17T13:16:31Z</time></trkpt>
<trkpt lat="46.54113217" lon="7.02715997"><ele>1539.688721</ele><time>2007-06-17T13:16:32Z</time></trkpt>
<trkpt lat="46.54127416" lon="7.02714094"><ele>1538.246826</ele><time>2007-06-17T13:16:47Z</time></trkpt>
<trkpt lat="46.54128958" lon="7.02716449"><ele>1537.2854</ele><time>2007-06-17T13:17:07Z</time></trkpt>
<trkpt lat="46.54134264" lon="7.02720045"><ele>1537.2854</ele><time>2007-06-17T13:22:46Z</time></trkpt>
<trkpt lat="46.54139729" lon="7.02723733"><ele>1535.843506</ele><time>2007-06-17T13:22:58Z</time></trkpt>
<trkpt lat="46.54144934" lon="7.02726818"><ele>1534.401611</ele><time>2007-06-17T13:23:10Z</time></trkpt>
<trkpt lat="46.54155294" lon="7.02729357"><ele>1535.362793</ele><time>2007-06-17T13:23:20Z</time></trkpt>
<trkpt lat="46.54167867" lon="7.02729056"><ele>1532.479004</ele><time>2007-06-17T13:23:34Z</time></trkpt>
<trkpt lat="46.54176794" lon="7.02724974"><ele>1532.479004</ele><time>2007-06-17T13:23:49Z</time></trkpt>
<trkpt lat="46.54187833" lon="7.02715167"><ele>1531.998047</ele><time>2007-06-17T13:24:03Z</time></trkpt>
<trkpt lat="46.54190130" lon="7.02704027"><ele>1529.114014</ele><time>2007-06-17T13:24:16Z</time></trkpt>
<trkpt lat="46.54186936" lon="7.02702862"><ele>1527.672119</ele><time>2007-06-17T13:24:21Z</time></trkpt>
<trkpt lat="46.54185302" lon="7.02697959"><ele>1525.268799</ele><time>2007-06-17T13:24:32Z</time></trkpt>
<trkpt lat="46.54183768" lon="7.02699568"><ele>1525.268799</ele><time>2007-06-17T13:24:35Z</time></trkpt>
<trkpt lat="46.54171932" lon="7.02704782"><ele>1522.38501</ele><time>2007-06-17T13:24:43Z</time></trkpt>
<trkpt lat="46.54166593" lon="7.02699786"><ele>1520.943115</ele><time>2007-06-17T13:24:46Z</time></trkpt>
<trkpt lat="46.54158027" lon="7.02689828"><ele>1520.462402</ele><time>2007-06-17T13:24:51Z</time></trkpt>
<trkpt lat="46.54149293" lon="7.02678303"><ele>1515.655762</ele><time>2007-06-17T13:24:59Z</time></trkpt>
<trkpt lat="46.54146058" lon="7.02673886"><ele>1513.73291</ele><time>2007-06-17T13:25:01Z</time></trkpt>
<trkpt lat="46.54142043" lon="7.02669242"><ele>1514.213623</ele><time>2007-06-17T13:25:04Z</time></trkpt>
<trkpt lat="46.54121289" lon="7.02658019"><ele>1510.849121</ele><time>2007-06-17T13:25:13Z</time></trkpt>
<trkpt lat="46.54114760" lon="7.02654306"><ele>1510.368408</ele><time>2007-06-17T13:25:15Z</time></trkpt>
<trkpt lat="46.54105213" lon="7.02649059"><ele>1510.368408</ele><time>2007-06-17T13:25:22Z</time></trkpt>
<trkpt lat="46.54102472" lon="7.02647919"><ele>1510.368408</ele><time>2007-06-17T13:25:26Z</time></trkpt>
<trkpt lat="46.54095775" lon="7.02648640"><ele>1510.849121</ele><time>2007-06-17T13:25:30Z</time></trkpt>
<trkpt lat="46.54091776" lon="7.02649788"><ele>1510.849121</ele><time>2007-06-17T13:25:32Z</time></trkpt>
<trkpt lat="46.54076714" lon="7.02660844"><ele>1509.887695</ele><time>2007-06-17T13:25:44Z</time></trkpt>
<trkpt lat="46.54067796" lon="7.02668170"><ele>1509.407227</ele><time>2007-06-17T13:26:33Z</time></trkpt>
<trkpt lat="46.54060042" lon="7.02680776"><ele>1507.003906</ele><time>2007-06-17T13:26:42Z</time></trkpt>
<trkpt lat="46.54054184" lon="7.02689376"><ele>1504.120117</ele><time>2007-06-17T13:26:52Z</time></trkpt>
<trkpt lat="46.54047897" lon="7.02687758"><ele>1502.677979</ele><time>2007-06-17T13:27:05Z</time></trkpt>
<trkpt lat="46.54047168" lon="7.02686802"><ele>1501.716797</ele><time>2007-06-17T13:27:07Z</time></trkpt>
<trkpt lat="46.54044519" lon="7.02683408"><ele>1501.236084</ele><time>2007-06-17T13:27:15Z</time></trkpt>
<trkpt lat="46.54034939" lon="7.02676719"><ele>1500.274902</ele><time>2007-06-17T13:27:21Z</time></trkpt>
<trkpt lat="46.54027445" lon="7.02676669"><ele>1499.793945</ele><time>2007-06-17T13:27:29Z</time></trkpt>
<trkpt lat="46.54020279" lon="7.02668362"><ele>1495.468018</ele><time>2007-06-17T13:27:34Z</time></trkpt>
<trkpt lat="46.54018912" lon="7.02666376"><ele>1495.468018</ele><time>2007-06-17T13:27:35Z</time></trkpt>
<trkpt lat="46.54013984" lon="7.02663048"><ele>1493.54541</ele><time>2007-06-17T13:27:38Z</time></trkpt>
<trkpt lat="46.53996893" lon="7.02660056"><ele>1492.584229</ele><time>2007-06-17T13:27:48Z</time></trkpt>
<trkpt lat="46.53994597" lon="7.02664423"><ele>1492.103516</ele><time>2007-06-17T13:28:06Z</time></trkpt>
<trkpt lat="46.53987262" lon="7.02668094"><ele>1493.064697</ele><time>2007-06-17T13:28:17Z</time></trkpt>
<trkpt lat="46.53977154" lon="7.02669402"><ele>1488.258301</ele><time>2007-06-17T13:28:29Z</time></trkpt>
<trkpt lat="46.53976609" lon="7.02668069"><ele>1488.258301</ele><time>2007-06-17T13:28:32Z</time></trkpt>
<trkpt lat="46.53970624" lon="7.02661095"><ele>1484.893799</ele><time>2007-06-17T13:28:37Z</time></trkpt>
<trkpt lat="46.53965092" lon="7.02658773"><ele>1482.970703</ele><time>2007-06-17T13:28:40Z</time></trkpt>
<trkpt lat="46.53962427" lon="7.02658120"><ele>1482.490234</ele><time>2007-06-17T13:28:41Z</time></trkpt>
<trkpt lat="46.53954548" lon="7.02657986"><ele>1479.606201</ele><time>2007-06-17T13:28:44Z</time></trkpt>
<trkpt lat="46.53951296" lon="7.02657667"><ele>1479.125488</ele><time>2007-06-17T13:28:46Z</time></trkpt>
<trkpt lat="46.53937717" lon="7.02656502"><ele>1476.241699</ele><time>2007-06-17T13:28:52Z</time></trkpt>
<trkpt lat="46.53917676" lon="7.02656435"><ele>1474.799805</ele><time>2007-06-17T13:28:58Z</time></trkpt>
<trkpt lat="46.53892446" lon="7.02655412"><ele>1471.915771</ele><time>2007-06-17T13:29:08Z</time></trkpt>
<trkpt lat="46.53881667" lon="7.02652194"><ele>1467.5896</ele><time>2007-06-17T13:29:13Z</time></trkpt>
<trkpt lat="46.53873386" lon="7.02648807"><ele>1464.705811</ele><time>2007-06-17T13:29:17Z</time></trkpt>
<trkpt lat="46.53863604" lon="7.02642580"><ele>1461.341309</ele><time>2007-06-17T13:29:25Z</time></trkpt>
<trkpt lat="46.53862682" lon="7.02639478"><ele>1462.783203</ele><time>2007-06-17T13:29:55Z</time></trkpt>
<trkpt lat="46.53860109" lon="7.02633494"><ele>1458.937988</ele><time>2007-06-17T13:30:06Z</time></trkpt>
<trkpt lat="46.53859640" lon="7.02633175"><ele>1458.937988</ele><time>2007-06-17T13:30:07Z</time></trkpt>
<trkpt lat="46.53855926" lon="7.02628682"><ele>1456.053955</ele><time>2007-06-17T13:30:15Z</time></trkpt>
<trkpt lat="46.53853663" lon="7.02621239"><ele>1454.131592</ele><time>2007-06-17T13:30:30Z</time></trkpt>
<trkpt lat="46.53856513" lon="7.02618683"><ele>1451.247314</ele><time>2007-06-17T13:30:35Z</time></trkpt>
<trkpt lat="46.53862079" lon="7.02614123"><ele>1449.80542</ele><time>2007-06-17T13:30:42Z</time></trkpt>
<trkpt lat="46.53866672" lon="7.02609329"><ele>1447.4021</ele><time>2007-06-17T13:30:48Z</time></trkpt>
<trkpt lat="46.53871969" lon="7.02600678"><ele>1444.518066</ele><time>2007-06-17T13:31:02Z</time></trkpt>
<trkpt lat="46.53880326" lon="7.02595213"><ele>1440.672852</ele><time>2007-06-17T13:31:13Z</time></trkpt>
<trkpt lat="46.53891642" lon="7.02582557"><ele>1437.30835</ele><time>2007-06-17T13:31:18Z</time></trkpt>
<trkpt lat="46.53900485" lon="7.02573705"><ele>1433.943604</ele><time>2007-06-17T13:31:22Z</time></trkpt>
<trkpt lat="46.53912638" lon="7.02564536"><ele>1432.020996</ele><time>2007-06-17T13:31:26Z</time></trkpt>
<trkpt lat="46.53935236" lon="7.02552558"><ele>1428.175781</ele><time>2007-06-17T13:31:31Z</time></trkpt>
<trkpt lat="46.53944238" lon="7.02545634"><ele>1426.733887</ele><time>2007-06-17T13:31:34Z</time></trkpt>
<trkpt lat="46.53938245" lon="7.02512316"><ele>1426.253174</ele><time>2007-06-17T13:31:46Z</time></trkpt>
<trkpt lat="46.53939343" lon="7.02507145"><ele>1425.291748</ele><time>2007-06-17T13:31:47Z</time></trkpt>
<trkpt lat="46.53940173" lon="7.02494740"><ele>1423.849854</ele><time>2007-06-17T13:31:49Z</time></trkpt>
<trkpt lat="46.53951656" lon="7.02481873"><ele>1420.966064</ele><time>2007-06-17T13:31:54Z</time></trkpt>
<trkpt lat="46.53964472" lon="7.02446359"><ele>1419.043213</ele><time>2007-06-17T13:32:08Z</time></trkpt>
<trkpt lat="46.53967406" lon="7.02431087"><ele>1417.601074</ele><time>2007-06-17T13:32:11Z</time></trkpt>
<trkpt lat="46.53969543" lon="7.02424868"><ele>1416.639893</ele><time>2007-06-17T13:32:13Z</time></trkpt>
<trkpt lat="46.53978352" lon="7.02425346"><ele>1416.15918</ele><time>2007-06-17T13:32:18Z</time></trkpt>
<trkpt lat="46.53986282" lon="7.02426335"><ele>1416.639893</ele><time>2007-06-17T13:32:32Z</time></trkpt>
<trkpt lat="46.53998318" lon="7.02428187"><ele>1413.275391</ele><time>2007-06-17T13:32:38Z</time></trkpt>
<trkpt lat="46.54010673" lon="7.02421918"><ele>1411.352783</ele><time>2007-06-17T13:32:42Z</time></trkpt>
<trkpt lat="46.54034880" lon="7.02417014"><ele>1408.46875</ele><time>2007-06-17T13:32:49Z</time></trkpt>
<trkpt lat="46.54049984" lon="7.02411239"><ele>1405.104248</ele><time>2007-06-17T13:32:53Z</time></trkpt>
<trkpt lat="46.54063328" lon="7.02411482"><ele>1403.181396</ele><time>2007-06-17T13:32:57Z</time></trkpt>
<trkpt lat="46.54072917" lon="7.02397157"><ele>1399.816895</ele><time>2007-06-17T13:33:03Z</time></trkpt>
<trkpt lat="46.54074585" lon="7.02381223"><ele>1396.932861</ele><time>2007-06-17T13:33:06Z</time></trkpt>
<trkpt lat="46.54076412" lon="7.02373864"><ele>1395.490967</ele><time>2007-06-17T13:33:08Z</time></trkpt>
<trkpt lat="46.54076144" lon="7.02372003"><ele>1395.490967</ele><time>2007-06-17T13:33:19Z</time></trkpt>
<trkpt lat="46.54071534" lon="7.02366664"><ele>1395.010254</ele><time>2007-06-17T13:33:32Z</time></trkpt>
<trkpt lat="46.54076957" lon="7.02356815"><ele>1394.049072</ele><time>2007-06-17T13:33:47Z</time></trkpt>
<trkpt lat="46.54078357" lon="7.02354686"><ele>1394.529541</ele><time>2007-06-17T13:33:53Z</time></trkpt>
<trkpt lat="46.54076639" lon="7.02348023"><ele>1394.529541</ele><time>2007-06-17T13:34:04Z</time></trkpt>
<trkpt lat="46.54068684" lon="7.02334444"><ele>1391.165039</ele><time>2007-06-17T13:34:10Z</time></trkpt>
<trkpt lat="46.54068357" lon="7.02322978"><ele>1388.761963</ele><time>2007-06-17T13:34:12Z</time></trkpt>
<trkpt lat="46.54063513" lon="7.02304822"><ele>1387.800293</ele><time>2007-06-17T13:34:18Z</time></trkpt>
<trkpt lat="46.54052105" lon="7.02290255"><ele>1384.916504</ele><time>2007-06-17T13:34:25Z</time></trkpt>
<trkpt lat="46.54037554" lon="7.02272535"><ele>1382.032471</ele><time>2007-06-17T13:34:36Z</time></trkpt>
<trkpt lat="46.54034285" lon="7.02267003"><ele>1380.109863</ele><time>2007-06-17T13:34:45Z</time></trkpt>
<trkpt lat="46.54030253" lon="7.02256870"><ele>1379.62915</ele><time>2007-06-17T13:34:56Z</time></trkpt>
<trkpt lat="46.54023866" lon="7.02252352"><ele>1378.187256</ele><time>2007-06-17T13:34:59Z</time></trkpt>
<trkpt lat="46.54019315" lon="7.02248387"><ele>1376.745361</ele><time>2007-06-17T13:35:01Z</time></trkpt>
<trkpt lat="46.54015283" lon="7.02243157"><ele>1375.303223</ele><time>2007-06-17T13:35:03Z</time></trkpt>
<trkpt lat="46.54008527" lon="7.02237650"><ele>1373.380859</ele><time>2007-06-17T13:35:06Z</time></trkpt>
<trkpt lat="46.53993306" lon="7.02216402"><ele>1370.015869</ele><time>2007-06-17T13:35:15Z</time></trkpt>
<trkpt lat="46.53989794" lon="7.02214289"><ele>1369.5354</ele><time>2007-06-17T13:35:23Z</time></trkpt>
<trkpt lat="46.53987656" lon="7.02226552"><ele>1367.13208</ele><time>2007-06-17T13:35:28Z</time></trkpt>
<trkpt lat="46.53985360" lon="7.02240500"><ele>1363.767334</ele><time>2007-06-17T13:35:32Z</time></trkpt>
<trkpt lat="46.53985385" lon="7.02243936"><ele>1363.286865</ele><time>2007-06-17T13:35:33Z</time></trkpt>
<trkpt lat="46.53985133" lon="7.02253408"><ele>1362.325439</ele><time>2007-06-17T13:35:36Z</time></trkpt>
<trkpt lat="46.53980264" lon="7.02255327"><ele>1360.883545</ele><time>2007-06-17T13:35:39Z</time></trkpt>
<trkpt lat="46.53978185" lon="7.02254263"><ele>1361.364258</ele><time>2007-06-17T13:35:40Z</time></trkpt>
<trkpt lat="46.53973307" lon="7.02248219"><ele>1357.519043</ele><time>2007-06-17T13:35:44Z</time></trkpt>
<trkpt lat="46.53964665" lon="7.02243802"><ele>1354.154297</ele><time>2007-06-17T13:35:51Z</time></trkpt>
<trkpt lat="46.53958152" lon="7.02262008"><ele>1349.828369</ele><time>2007-06-17T13:35:55Z</time></trkpt>
<trkpt lat="46.53954632" lon="7.02271580"><ele>1348.866943</ele><time>2007-06-17T13:35:57Z</time></trkpt>
<trkpt lat="46.53933627" lon="7.02249669"><ele>1345.502441</ele><time>2007-06-17T13:36:07Z</time></trkpt>
<trkpt lat="46.53930425" lon="7.02241044"><ele>1344.541016</ele><time>2007-06-17T13:36:09Z</time></trkpt>
<trkpt lat="46.53919134" lon="7.02219143"><ele>1339.734375</ele><time>2007-06-17T13:36:14Z</time></trkpt>
<trkpt lat="46.53915865" lon="7.02208539"><ele>1336.369873</ele><time>2007-06-17T13:36:16Z</time></trkpt>
<trkpt lat="46.53910484" lon="7.02194785"><ele>1333.966553</ele><time>2007-06-17T13:36:19Z</time></trkpt>
<trkpt lat="46.53903854" lon="7.02192949"><ele>1333.005127</ele><time>2007-06-17T13:36:31Z</time></trkpt>
<trkpt lat="46.53896905" lon="7.02201717"><ele>1333.966553</ele><time>2007-06-17T13:36:46Z</time></trkpt>
<trkpt lat="46.53900560" lon="7.02194190"><ele>1333.48584</ele><time>2007-06-17T13:37:07Z</time></trkpt>
<trkpt lat="46.53899345" lon="7.02184056"><ele>1329.159912</ele><time>2007-06-17T13:37:13Z</time></trkpt>
<trkpt lat="46.53894223" lon="7.02168650"><ele>1327.718018</ele><time>2007-06-17T13:37:16Z</time></trkpt>
<trkpt lat="46.53888339" lon="7.02148307"><ele>1325.79541</ele><time>2007-06-17T13:37:21Z</time></trkpt>
<trkpt lat="46.53885213" lon="7.02137419"><ele>1321.949951</ele><time>2007-06-17T13:37:24Z</time></trkpt>
<trkpt lat="46.53881642" lon="7.02137352"><ele>1321.469238</ele><time>2007-06-17T13:37:26Z</time></trkpt>
<trkpt lat="46.53875113" lon="7.02135592"><ele>1320.027344</ele><time>2007-06-17T13:37:29Z</time></trkpt>
<trkpt lat="46.53862012" lon="7.02130915"><ele>1319.066162</ele><time>2007-06-17T13:37:43Z</time></trkpt>
<trkpt lat="46.53863956" lon="7.02128056"><ele>1318.104736</ele><time>2007-06-17T13:37:45Z</time></trkpt>
<trkpt lat="46.53869036" lon="7.02122407"><ele>1317.143555</ele><time>2007-06-17T13:37:47Z</time></trkpt>
<trkpt lat="46.53867804" lon="7.02113095"><ele>1317.624023</ele><time>2007-06-17T13:37:51Z</time></trkpt>
<trkpt lat="46.53850352" lon="7.02089508"><ele>1319.546875</ele><time>2007-06-17T13:38:05Z</time></trkpt>
<trkpt lat="46.53842499" lon="7.02079106"><ele>1318.585449</ele><time>2007-06-17T13:38:12Z</time></trkpt>
<trkpt lat="46.53828786" lon="7.02054019"><ele>1320.027344</ele><time>2007-06-17T13:38:26Z</time></trkpt>
<trkpt lat="46.53821753" lon="7.02048588"><ele>1320.508057</ele><time>2007-06-17T13:38:36Z</time></trkpt>
<trkpt lat="46.53814495" lon="7.02042829"><ele>1321.469238</ele><time>2007-06-17T13:38:47Z</time></trkpt>
<trkpt lat="46.53806884" lon="7.02038655"><ele>1323.872559</ele><time>2007-06-17T13:38:56Z</time></trkpt>
<trkpt lat="46.53804956" lon="7.02035612"><ele>1324.353516</ele><time>2007-06-17T13:38:59Z</time></trkpt>
<trkpt lat="46.53803372" lon="7.02019209"><ele>1325.314697</ele><time>2007-06-17T13:39:14Z</time></trkpt>
<trkpt lat="46.53804436" lon="7.02016535"><ele>1324.353516</ele><time>2007-06-17T13:39:18Z</time></trkpt>
<trkpt lat="46.53810765" lon="7.02002822"><ele>1324.353516</ele><time>2007-06-17T13:39:32Z</time></trkpt>
<trkpt lat="46.53810865" lon="7.01997366"><ele>1323.872559</ele><time>2007-06-17T13:39:48Z</time></trkpt>
<trkpt lat="46.53805383" lon="7.01987509"><ele>1324.353516</ele><time>2007-06-17T13:39:58Z</time></trkpt>
<trkpt lat="46.53799675" lon="7.01978599"><ele>1324.834229</ele><time>2007-06-17T13:40:12Z</time></trkpt>
<trkpt lat="46.53780456" lon="7.01990476"><ele>1327.237549</ele><time>2007-06-17T13:40:31Z</time></trkpt>
<trkpt lat="46.53768696" lon="7.02001129"><ele>1328.679443</ele><time>2007-06-17T13:40:45Z</time></trkpt>
<trkpt lat="46.53754069" lon="7.02012244"><ele>1330.602051</ele><time>2007-06-17T13:41:02Z</time></trkpt>
<trkpt lat="46.53746492" lon="7.02006142"><ele>1331.082764</ele><time>2007-06-17T13:41:19Z</time></trkpt>
<trkpt lat="46.53738756" lon="7.01998573"><ele>1330.602051</ele><time>2007-06-17T13:41:33Z</time></trkpt>
<trkpt lat="46.53735453" lon="7.01985732"><ele>1331.563232</ele><time>2007-06-17T13:41:48Z</time></trkpt>
<trkpt lat="46.53734967" lon="7.01978825"><ele>1332.524658</ele><time>2007-06-17T13:42:17Z</time></trkpt>
<trkpt lat="46.53746258" lon="7.01976243"><ele>1335.408447</ele><time>2007-06-17T13:42:30Z</time></trkpt>
<trkpt lat="46.53755603" lon="7.01981340"><ele>1338.29248</ele><time>2007-06-17T13:42:43Z</time></trkpt>
<trkpt lat="46.53759392" lon="7.01975204"><ele>1339.253662</ele><time>2007-06-17T13:42:58Z</time></trkpt>
<trkpt lat="46.53751614" lon="7.01963210"><ele>1342.137939</ele><time>2007-06-17T13:43:16Z</time></trkpt>
<trkpt lat="46.53746844" lon="7.01951022"><ele>1344.060547</ele><time>2007-06-17T13:43:30Z</time></trkpt>
<trkpt lat="46.53742016" lon="7.01938776"><ele>1345.983154</ele><time>2007-06-17T13:43:46Z</time></trkpt>
<trkpt lat="46.53737507" lon="7.01928408"><ele>1347.425049</ele><time>2007-06-17T13:44:05Z</time></trkpt>
<trkpt lat="46.53733576" lon="7.01920009"><ele>1350.309082</ele><time>2007-06-17T13:44:16Z</time></trkpt>
<trkpt lat="46.53731405" lon="7.01916237"><ele>1351.750977</ele><time>2007-06-17T13:44:21Z</time></trkpt>
<trkpt lat="46.53723333" lon="7.01902944"><ele>1355.115479</ele><time>2007-06-17T13:44:37Z</time></trkpt>
<trkpt lat="46.53722042" lon="7.01901116"><ele>1355.596191</ele><time>2007-06-17T13:44:39Z</time></trkpt>
<trkpt lat="46.53707198" lon="7.01880388"><ele>1358.480225</ele><time>2007-06-17T13:45:01Z</time></trkpt>
<trkpt lat="46.53705865" lon="7.01871478"><ele>1358.960938</ele><time>2007-06-17T13:45:17Z</time></trkpt>
<trkpt lat="46.53706242" lon="7.01865083"><ele>1359.44165</ele><time>2007-06-17T13:45:25Z</time></trkpt>
<trkpt lat="46.53706309" lon="7.01847288"><ele>1362.325439</ele><time>2007-06-17T13:45:38Z</time></trkpt>
<trkpt lat="46.53705304" lon="7.01820759"><ele>1362.806152</ele><time>2007-06-17T13:45:56Z</time></trkpt>
<trkpt lat="46.53705169" lon="7.01814774"><ele>1363.286865</ele><time>2007-06-17T13:46:10Z</time></trkpt>
<trkpt lat="46.53705220" lon="7.01779084"><ele>1361.844971</ele><time>2007-06-17T13:46:18Z</time></trkpt>
<trkpt lat="46.53686117" lon="7.01750116"><ele>1361.844971</ele><time>2007-06-17T13:46:25Z</time></trkpt>
<trkpt lat="46.53660058" lon="7.01730067"><ele>1362.806152</ele><time>2007-06-17T13:46:36Z</time></trkpt>
<trkpt lat="46.53658164" lon="7.01724024"><ele>1362.325439</ele><time>2007-06-17T13:46:37Z</time></trkpt>
<trkpt lat="46.53619674" lon="7.01685718"><ele>1361.844971</ele><time>2007-06-17T13:46:48Z</time></trkpt>
<trkpt lat="46.53583238" lon="7.01677772"><ele>1362.806152</ele><time>2007-06-17T13:46:58Z</time></trkpt>
<trkpt lat="46.53565384" lon="7.01666566"><ele>1365.690186</ele><time>2007-06-17T13:47:06Z</time></trkpt>
<trkpt lat="46.53563708" lon="7.01664596"><ele>1365.690186</ele><time>2007-06-17T13:47:07Z</time></trkpt>
<trkpt lat="46.53549199" lon="7.01626685"><ele>1367.13208</ele><time>2007-06-17T13:47:20Z</time></trkpt>
<trkpt lat="46.53528295" lon="7.01593350"><ele>1369.5354</ele><time>2007-06-17T13:47:34Z</time></trkpt>
<trkpt lat="46.53500953" lon="7.01558439"><ele>1370.977295</ele><time>2007-06-17T13:47:50Z</time></trkpt>
<trkpt lat="46.53490894" lon="7.01511987"><ele>1372.900146</ele><time>2007-06-17T13:48:05Z</time></trkpt>
<trkpt lat="46.53467325" lon="7.01503328"><ele>1375.783936</ele><time>2007-06-17T13:48:18Z</time></trkpt>
<trkpt lat="46.53449287" lon="7.01509346"><ele>1376.745361</ele><time>2007-06-17T13:48:32Z</time></trkpt>
<trkpt lat="46.53445716" lon="7.01510243"><ele>1376.745361</ele><time>2007-06-17T13:49:07Z</time></trkpt>
<trkpt lat="46.53432615" lon="7.01517628"><ele>1378.187256</ele><time>2007-06-17T13:49:20Z</time></trkpt>
<trkpt lat="46.53419305" lon="7.01534333"><ele>1381.071289</ele><time>2007-06-17T13:49:33Z</time></trkpt>
<trkpt lat="46.53408894" lon="7.01558540"><ele>1382.513184</ele><time>2007-06-17T13:49:47Z</time></trkpt>
<trkpt lat="46.53398082" lon="7.01596987"><ele>1384.435791</ele><time>2007-06-17T13:50:06Z</time></trkpt>
<trkpt lat="46.53395358" lon="7.01604095"><ele>1384.916504</ele><time>2007-06-17T13:50:10Z</time></trkpt>
<trkpt lat="46.53368955" lon="7.01606786"><ele>1386.838867</ele><time>2007-06-17T13:50:28Z</time></trkpt>
<trkpt lat="46.53347287" lon="7.01545900"><ele>1389.242432</ele><time>2007-06-17T13:50:45Z</time></trkpt>
<trkpt lat="46.53324380" lon="7.01488643"><ele>1390.684326</ele><time>2007-06-17T13:51:02Z</time></trkpt>
<trkpt lat="46.53297449" lon="7.01472005"><ele>1391.165039</ele><time>2007-06-17T13:51:13Z</time></trkpt>
<trkpt lat="46.53293886" lon="7.01470437"><ele>1390.684326</ele><time>2007-06-17T13:51:14Z</time></trkpt>
<trkpt lat="46.53277810" lon="7.01455945"><ele>1390.203857</ele><time>2007-06-17T13:51:18Z</time></trkpt>
<trkpt lat="46.53261222" lon="7.01446826"><ele>1385.877686</ele><time>2007-06-17T13:51:21Z</time></trkpt>
<trkpt lat="46.53255028" lon="7.01447546"><ele>1386.838867</ele><time>2007-06-17T13:51:22Z</time></trkpt>
<trkpt lat="46.53243595" lon="7.01453472"><ele>1386.358398</ele><time>2007-06-17T13:51:24Z</time></trkpt>
<trkpt lat="46.53228323" lon="7.01462257"><ele>1389.242432</ele><time>2007-06-17T13:51:28Z</time></trkpt>
<trkpt lat="46.53184184" lon="7.01454923"><ele>1391.165039</ele><time>2007-06-17T13:51:42Z</time></trkpt>
<trkpt lat="46.53146340" lon="7.01451193"><ele>1387.31958</ele><time>2007-06-17T13:51:50Z</time></trkpt>
<trkpt lat="46.53084029" lon="7.01460647"><ele>1385.877686</ele><time>2007-06-17T13:52:03Z</time></trkpt>
<trkpt lat="46.53082293" lon="7.01460044"><ele>1385.877686</ele><time>2007-06-17T13:52:12Z</time></trkpt>
<trkpt lat="46.53080466" lon="7.01456934"><ele>1385.396973</ele><time>2007-06-17T13:52:31Z</time></trkpt>
<trkpt lat="46.53077365" lon="7.01459474"><ele>1386.358398</ele><time>2007-06-17T13:52:44Z</time></trkpt>
<trkpt lat="46.53060509" lon="7.01479792"><ele>1384.916504</ele><time>2007-06-17T13:52:52Z</time></trkpt>
<trkpt lat="46.53050333" lon="7.01473983"><ele>1384.435791</ele><time>2007-06-17T13:52:56Z</time></trkpt>
<trkpt lat="46.53044558" lon="7.01420917"><ele>1385.877686</ele><time>2007-06-17T13:53:09Z</time></trkpt>
<trkpt lat="46.53039906" lon="7.01379293"><ele>1387.800293</ele><time>2007-06-17T13:53:22Z</time></trkpt>
<trkpt lat="46.53038188" lon="7.01362755"><ele>1389.242432</ele><time>2007-06-17T13:53:27Z</time></trkpt>
<trkpt lat="46.53034265" lon="7.01305892"><ele>1392.126465</ele><time>2007-06-17T13:53:44Z</time></trkpt>
<trkpt lat="46.53037928" lon="7.01250496"><ele>1395.010254</ele><time>2007-06-17T13:54:01Z</time></trkpt>
<trkpt lat="46.53048280" lon="7.01209685"><ele>1398.855469</ele><time>2007-06-17T13:54:15Z</time></trkpt>
<trkpt lat="46.53077424" lon="7.01169997"><ele>1400.297607</ele><time>2007-06-17T13:54:33Z</time></trkpt>
<trkpt lat="46.53123767" lon="7.01149754"><ele>1399.816895</ele><time>2007-06-17T13:54:49Z</time></trkpt>
<trkpt lat="46.53152484" lon="7.01146703"><ele>1396.452393</ele><time>2007-06-17T13:54:54Z</time></trkpt>
<trkpt lat="46.53158644" lon="7.01145404"><ele>1395.97168</ele><time>2007-06-17T13:54:55Z</time></trkpt>
<trkpt lat="46.53175416" lon="7.01133460"><ele>1396.452393</ele><time>2007-06-17T13:55:02Z</time></trkpt>
<trkpt lat="46.53174855" lon="7.01132697"><ele>1396.452393</ele><time>2007-06-17T13:55:13Z</time></trkpt>
<trkpt lat="46.53176548" lon="7.01130166"><ele>1396.452393</ele><time>2007-06-17T13:55:24Z</time></trkpt>
<trkpt lat="46.53178333" lon="7.01129495"><ele>1396.452393</ele><time>2007-06-17T13:55:36Z</time></trkpt>
<trkpt lat="46.53190386" lon="7.01087334"><ele>1399.816895</ele><time>2007-06-17T13:55:51Z</time></trkpt>
<trkpt lat="46.53177110" lon="7.01023749"><ele>1399.336182</ele><time>2007-06-17T13:56:06Z</time></trkpt>
<trkpt lat="46.53133473" lon="7.00984036"><ele>1399.336182</ele><time>2007-06-17T13:56:20Z</time></trkpt>
<trkpt lat="46.53128905" lon="7.00957130"><ele>1398.855469</ele><time>2007-06-17T13:56:25Z</time></trkpt>
<trkpt lat="46.53133599" lon="7.00930710"><ele>1398.374756</ele><time>2007-06-17T13:56:29Z</time></trkpt>
<trkpt lat="46.53117422" lon="7.00875104"><ele>1396.932861</ele><time>2007-06-17T13:56:37Z</time></trkpt>
<trkpt lat="46.53095093" lon="7.00855357"><ele>1394.049072</ele><time>2007-06-17T13:56:41Z</time></trkpt>
<trkpt lat="46.53085747" lon="7.00840705"><ele>1393.087646</ele><time>2007-06-17T13:56:43Z</time></trkpt>
<trkpt lat="46.53084029" lon="7.00802383"><ele>1389.242432</ele><time>2007-06-17T13:56:48Z</time></trkpt>
<trkpt lat="46.53081883" lon="7.00797153"><ele>1389.242432</ele><time>2007-06-17T13:56:49Z</time></trkpt>
<trkpt lat="46.53073467" lon="7.00791252"><ele>1386.838867</ele><time>2007-06-17T13:56:51Z</time></trkpt>
<trkpt lat="46.53062965" lon="7.00786097"><ele>1385.877686</ele><time>2007-06-17T13:56:53Z</time></trkpt>
<trkpt lat="46.53029856" lon="7.00782560"><ele>1382.513184</ele><time>2007-06-17T13:57:01Z</time></trkpt>
<trkpt lat="46.53016713" lon="7.00816842"><ele>1376.745361</ele><time>2007-06-17T13:57:05Z</time></trkpt>
<trkpt lat="46.53013612" lon="7.00840772"><ele>1376.264648</ele><time>2007-06-17T13:57:07Z</time></trkpt>
<trkpt lat="46.53013109" lon="7.00852364"><ele>1375.783936</ele><time>2007-06-17T13:57:08Z</time></trkpt>
<trkpt lat="46.52989229" lon="7.00879128"><ele>1377.706543</ele><time>2007-06-17T13:57:14Z</time></trkpt>
<trkpt lat="46.52983789" lon="7.00878340"><ele>1377.226074</ele><time>2007-06-17T13:57:15Z</time></trkpt>
<trkpt lat="46.52945316" lon="7.00866027"><ele>1375.783936</ele><time>2007-06-17T13:57:22Z</time></trkpt>
<trkpt lat="46.52903248" lon="7.00815325"><ele>1372.900146</ele><time>2007-06-17T13:57:30Z</time></trkpt>
<trkpt lat="46.52886157" lon="7.00774916"><ele>1370.015869</ele><time>2007-06-17T13:57:34Z</time></trkpt>
<trkpt lat="46.52859075" lon="7.00749728"><ele>1370.015869</ele><time>2007-06-17T13:57:39Z</time></trkpt>
<trkpt lat="46.52827023" lon="7.00750340"><ele>1368.573975</ele><time>2007-06-17T13:57:44Z</time></trkpt>
<trkpt lat="46.52802774" lon="7.00758873"><ele>1368.093262</ele><time>2007-06-17T13:57:48Z</time></trkpt>
<trkpt lat="46.52778382" lon="7.00776014"><ele>1369.5354</ele><time>2007-06-17T13:57:53Z</time></trkpt>
<trkpt lat="46.52759582" lon="7.00774354"><ele>1370.496582</ele><time>2007-06-17T13:57:57Z</time></trkpt>
<trkpt lat="46.52750454" lon="7.00743098"><ele>1369.5354</ele><time>2007-06-17T13:58:02Z</time></trkpt>
<trkpt lat="46.52750378" lon="7.00715982"><ele>1368.573975</ele><time>2007-06-17T13:58:05Z</time></trkpt>
<trkpt lat="46.52740790" lon="7.00675590"><ele>1364.72876</ele><time>2007-06-17T13:58:09Z</time></trkpt>
<trkpt lat="46.52719684" lon="7.00622566"><ele>1362.325439</ele><time>2007-06-17T13:58:15Z</time></trkpt>
<trkpt lat="46.52714202" lon="7.00601519"><ele>1359.44165</ele><time>2007-06-17T13:58:18Z</time></trkpt>
<trkpt lat="46.52712568" lon="7.00593506"><ele>1359.44165</ele><time>2007-06-17T13:58:19Z</time></trkpt>
<trkpt lat="46.52707103" lon="7.00569198"><ele>1357.03833</ele><time>2007-06-17T13:58:22Z</time></trkpt>
<trkpt lat="46.52703507" lon="7.00555528"><ele>1355.596191</ele><time>2007-06-17T13:58:24Z</time></trkpt>
<trkpt lat="46.52696298" lon="7.00533248"><ele>1353.192871</ele><time>2007-06-17T13:58:28Z</time></trkpt>
<trkpt lat="46.52682150" lon="7.00481138"><ele>1349.828369</ele><time>2007-06-17T13:58:38Z</time></trkpt>
<trkpt lat="46.52680239" lon="7.00476419"><ele>1348.866943</ele><time>2007-06-17T13:58:39Z</time></trkpt>
<trkpt lat="46.52647214" lon="7.00458415"><ele>1345.021729</ele><time>2007-06-17T13:58:47Z</time></trkpt>
<trkpt lat="46.52644247" lon="7.00457258"><ele>1345.502441</ele><time>2007-06-17T13:58:48Z</time></trkpt>
<trkpt lat="46.52641229" lon="7.00459999"><ele>1344.541016</ele><time>2007-06-17T13:58:55Z</time></trkpt>
<trkpt lat="46.52641724" lon="7.00462832"><ele>1344.060547</ele><time>2007-06-17T13:58:57Z</time></trkpt>
<trkpt lat="46.52650324" lon="7.00462262"><ele>1344.541016</ele><time>2007-06-17T13:59:04Z</time></trkpt>
<trkpt lat="46.52651506" lon="7.00466545"><ele>1345.502441</ele><time>2007-06-17T13:59:10Z</time></trkpt>
<trkpt lat="46.52647365" lon="7.00461675"><ele>1344.060547</ele><time>2007-06-17T13:59:13Z</time></trkpt>
<trkpt lat="46.52655956" lon="7.00467350"><ele>1344.541016</ele><time>2007-06-17T13:59:21Z</time></trkpt>
<trkpt lat="46.52658488" lon="7.00468523"><ele>1345.502441</ele><time>2007-06-17T13:59:22Z</time></trkpt>
<trkpt lat="46.52663148" lon="7.00470795"><ele>1345.983154</ele><time>2007-06-17T13:59:24Z</time></trkpt>
<trkpt lat="46.52669485" lon="7.00473854"><ele>1347.425049</ele><time>2007-06-17T13:59:27Z</time></trkpt>
<trkpt lat="46.52686710" lon="7.00497223"><ele>1348.866943</ele><time>2007-06-17T13:59:41Z</time></trkpt>
<trkpt lat="46.52692895" lon="7.00525638"><ele>1352.231445</ele><time>2007-06-17T13:59:53Z</time></trkpt>
<trkpt lat="46.52702719" lon="7.00553298"><ele>1355.596191</ele><time>2007-06-17T14:00:06Z</time></trkpt>
<trkpt lat="46.52713465" lon="7.00595249"><ele>1358.480225</ele><time>2007-06-17T14:00:25Z</time></trkpt>
<trkpt lat="46.52721838" lon="7.00631426"><ele>1361.844971</ele><time>2007-06-17T14:00:41Z</time></trkpt>
<trkpt lat="46.52734034" lon="7.00666127"><ele>1364.72876</ele><time>2007-06-17T14:00:57Z</time></trkpt>
<trkpt lat="46.52737026" lon="7.00672145"><ele>1365.209473</ele><time>2007-06-17T14:01:00Z</time></trkpt>
<trkpt lat="46.52749632" lon="7.00699269"><ele>1368.093262</ele><time>2007-06-17T14:01:13Z</time></trkpt>
<trkpt lat="46.52751460" lon="7.00746886"><ele>1370.496582</ele><time>2007-06-17T14:01:31Z</time></trkpt>
<trkpt lat="46.52764862" lon="7.00783138"><ele>1370.496582</ele><time>2007-06-17T14:01:44Z</time></trkpt>
<trkpt lat="46.52780293" lon="7.00776919"><ele>1370.977295</ele><time>2007-06-17T14:01:49Z</time></trkpt>
<trkpt lat="46.52792799" lon="7.00755654"><ele>1370.977295</ele><time>2007-06-17T14:01:59Z</time></trkpt>
<trkpt lat="46.52790075" lon="7.00748269"><ele>1370.977295</ele><time>2007-06-17T14:02:11Z</time></trkpt>
<trkpt lat="46.52791567" lon="7.00744565"><ele>1371.457764</ele><time>2007-06-17T14:02:24Z</time></trkpt>
<trkpt lat="46.52792556" lon="7.00744799"><ele>1371.457764</ele><time>2007-06-17T14:02:25Z</time></trkpt>
<trkpt lat="46.52794526" lon="7.00740566"><ele>1371.457764</ele><time>2007-06-17T14:02:29Z</time></trkpt>
<trkpt lat="46.52796563" lon="7.00731455"><ele>1371.938477</ele><time>2007-06-17T14:02:35Z</time></trkpt>
<trkpt lat="46.52794870" lon="7.00722897"><ele>1374.822754</ele><time>2007-06-17T14:02:43Z</time></trkpt>
<trkpt lat="46.52790276" lon="7.00697634"><ele>1377.226074</ele><time>2007-06-17T14:03:02Z</time></trkpt>
<trkpt lat="46.52787678" lon="7.00681197"><ele>1380.590576</ele><time>2007-06-17T14:03:14Z</time></trkpt>
<trkpt lat="46.52783177" lon="7.00656127"><ele>1382.993652</ele><time>2007-06-17T14:03:32Z</time></trkpt>
<trkpt lat="46.52778072" lon="7.00624678"><ele>1385.877686</ele><time>2007-06-17T14:03:53Z</time></trkpt>
<trkpt lat="46.52776362" lon="7.00599809"><ele>1388.761963</ele><time>2007-06-17T14:04:12Z</time></trkpt>
<trkpt lat="46.52775398" lon="7.00574865"><ele>1390.203857</ele><time>2007-06-17T14:04:29Z</time></trkpt>
<trkpt lat="46.52774912" lon="7.00555695"><ele>1391.645752</ele><time>2007-06-17T14:04:45Z</time></trkpt>
<trkpt lat="46.52781224" lon="7.00532209"><ele>1393.568359</ele><time>2007-06-17T14:05:03Z</time></trkpt>
<trkpt lat="46.52783143" lon="7.00521304"><ele>1395.010254</ele><time>2007-06-17T14:05:12Z</time></trkpt>
<trkpt lat="46.52784979" lon="7.00498472"><ele>1397.413574</ele><time>2007-06-17T14:05:29Z</time></trkpt>
<trkpt lat="46.52785658" lon="7.00493954"><ele>1397.894287</ele><time>2007-06-17T14:05:49Z</time></trkpt>
<trkpt lat="46.52787083" lon="7.00480233"><ele>1398.855469</ele><time>2007-06-17T14:06:07Z</time></trkpt>
<trkpt lat="46.52777729" lon="7.00453294"><ele>1401.258789</ele><time>2007-06-17T14:06:24Z</time></trkpt>
<trkpt lat="46.52767193" lon="7.00425114"><ele>1402.219971</ele><time>2007-06-17T14:06:43Z</time></trkpt>
<trkpt lat="46.52766748" lon="7.00405324"><ele>1402.700684</ele><time>2007-06-17T14:06:58Z</time></trkpt>
<trkpt lat="46.52770596" lon="7.00380002"><ele>1403.662109</ele><time>2007-06-17T14:07:13Z</time></trkpt>
<trkpt lat="46.52782322" lon="7.00342124"><ele>1406.546143</ele><time>2007-06-17T14:07:33Z</time></trkpt>
<trkpt lat="46.52782724" lon="7.00340155"><ele>1407.026855</ele><time>2007-06-17T14:07:34Z</time></trkpt>
<trkpt lat="46.52781735" lon="7.00332913"><ele>1407.988281</ele><time>2007-06-17T14:07:38Z</time></trkpt>
<trkpt lat="46.52771677" lon="7.00320264"><ele>1409.430176</ele><time>2007-06-17T14:07:48Z</time></trkpt>
<trkpt lat="46.52771048" lon="7.00317297"><ele>1411.352783</ele><time>2007-06-17T14:07:51Z</time></trkpt>
<trkpt lat="46.52772339" lon="7.00316308"><ele>1412.313965</ele><time>2007-06-17T14:08:20Z</time></trkpt>
<trkpt lat="46.52776857" lon="7.00316224"><ele>1411.833496</ele><time>2007-06-17T14:08:31Z</time></trkpt>
<trkpt lat="46.52784543" lon="7.00305789"><ele>1414.236572</ele><time>2007-06-17T14:08:50Z</time></trkpt>
<trkpt lat="46.52783168" lon="7.00283786"><ele>1417.601074</ele><time>2007-06-17T14:09:08Z</time></trkpt>
<trkpt lat="46.52791802" lon="7.00264793"><ele>1420.485352</ele><time>2007-06-17T14:09:26Z</time></trkpt>
<trkpt lat="46.52801433" lon="7.00248750"><ele>1423.849854</ele><time>2007-06-17T14:09:46Z</time></trkpt>
<trkpt lat="46.52806378" lon="7.00242396"><ele>1427.2146</ele><time>2007-06-17T14:09:58Z</time></trkpt>
<trkpt lat="46.52812949" lon="7.00240209"><ele>1429.617676</ele><time>2007-06-17T14:10:09Z</time></trkpt>
<trkpt lat="46.52823318" lon="7.00238767"><ele>1432.501709</ele><time>2007-06-17T14:10:24Z</time></trkpt>
<trkpt lat="46.52839746" lon="7.00233906"><ele>1434.905029</ele><time>2007-06-17T14:10:40Z</time></trkpt>
<trkpt lat="46.52846930" lon="7.00233067"><ele>1435.866211</ele><time>2007-06-17T14:10:48Z</time></trkpt>
<trkpt lat="46.52861028" lon="7.00235724"><ele>1438.269775</ele><time>2007-06-17T14:11:04Z</time></trkpt>
<trkpt lat="46.52869334" lon="7.00235054"><ele>1438.269775</ele><time>2007-06-17T14:11:21Z</time></trkpt>
<trkpt lat="46.52888680" lon="7.00243017"><ele>1441.634277</ele><time>2007-06-17T14:11:41Z</time></trkpt>
<trkpt lat="46.52906475" lon="7.00247467"><ele>1444.518066</ele><time>2007-06-17T14:12:01Z</time></trkpt>
<trkpt lat="46.52914404" lon="7.00259973"><ele>1447.4021</ele><time>2007-06-17T14:12:17Z</time></trkpt>
<trkpt lat="46.52916273" lon="7.00268732"><ele>1448.843994</ele><time>2007-06-17T14:12:25Z</time></trkpt>
<trkpt lat="46.52917723" lon="7.00293023"><ele>1450.766602</ele><time>2007-06-17T14:12:44Z</time></trkpt>
<trkpt lat="46.52922476" lon="7.00306250"><ele>1454.131592</ele><time>2007-06-17T14:12:59Z</time></trkpt>
<trkpt lat="46.52923213" lon="7.00306962"><ele>1454.612061</ele><time>2007-06-17T14:13:19Z</time></trkpt>
<trkpt lat="46.52922886" lon="7.00306543"><ele>1454.612061</ele><time>2007-06-17T14:13:40Z</time></trkpt>
<trkpt lat="46.52922174" lon="7.00311916"><ele>1455.092773</ele><time>2007-06-17T14:13:44Z</time></trkpt>
<trkpt lat="46.52923473" lon="7.00321999"><ele>1457.015381</ele><time>2007-06-17T14:13:52Z</time></trkpt>
<trkpt lat="46.52929408" lon="7.00331479"><ele>1460.379883</ele><time>2007-06-17T14:14:04Z</time></trkpt>
<trkpt lat="46.52931193" lon="7.00331488"><ele>1459.89917</ele><time>2007-06-17T14:14:06Z</time></trkpt>
<trkpt lat="46.52938133" lon="7.00328856"><ele>1461.341309</ele><time>2007-06-17T14:14:13Z</time></trkpt>
<trkpt lat="46.52939575" lon="7.00325989"><ele>1461.341309</ele><time>2007-06-17T14:14:23Z</time></trkpt>
<trkpt lat="46.52944084" lon="7.00279227"><ele>1462.783203</ele><time>2007-06-17T14:14:40Z</time></trkpt>
<trkpt lat="46.52950513" lon="7.00243444"><ele>1464.705811</ele><time>2007-06-17T14:14:53Z</time></trkpt>
<trkpt lat="46.52952257" lon="7.00219950"><ele>1468.070557</ele><time>2007-06-17T14:15:03Z</time></trkpt>
<trkpt lat="46.52950739" lon="7.00205063"><ele>1469.993164</ele><time>2007-06-17T14:15:10Z</time></trkpt>
<trkpt lat="46.52947797" lon="7.00181829"><ele>1472.877197</ele><time>2007-06-17T14:15:23Z</time></trkpt>
<trkpt lat="46.52943397" lon="7.00157706"><ele>1476.241699</ele><time>2007-06-17T14:15:37Z</time></trkpt>
<trkpt lat="46.52937504" lon="7.00127145"><ele>1477.203125</ele><time>2007-06-17T14:15:54Z</time></trkpt>
<trkpt lat="46.52936826" lon="7.00114162"><ele>1478.164307</ele><time>2007-06-17T14:16:02Z</time></trkpt>
<trkpt lat="46.52937395" lon="7.00109535"><ele>1479.125488</ele><time>2007-06-17T14:16:05Z</time></trkpt>
<trkpt lat="46.52938636" lon="7.00085060"><ele>1482.970703</ele><time>2007-06-17T14:16:18Z</time></trkpt>
<trkpt lat="46.52936884" lon="7.00054843"><ele>1485.85498</ele><time>2007-06-17T14:16:34Z</time></trkpt>
<trkpt lat="46.52931520" lon="7.00023369"><ele>1489.219482</ele><time>2007-06-17T14:16:52Z</time></trkpt>
<trkpt lat="46.52919676" lon="6.99994544"><ele>1493.064697</ele><time>2007-06-17T14:17:10Z</time></trkpt>
<trkpt lat="46.52909040" lon="6.99964947"><ele>1494.506592</ele><time>2007-06-17T14:17:28Z</time></trkpt>
<trkpt lat="46.52894757" lon="6.99938552"><ele>1496.909912</ele><time>2007-06-17T14:17:46Z</time></trkpt>
<trkpt lat="46.52881656" lon="6.99914765"><ele>1499.793945</ele><time>2007-06-17T14:18:02Z</time></trkpt>
<trkpt lat="46.52858446" lon="6.99880575"><ele>1499.793945</ele><time>2007-06-17T14:18:17Z</time></trkpt>
<trkpt lat="46.52836067" lon="6.99860970"><ele>1502.677979</ele><time>2007-06-17T14:18:30Z</time></trkpt>
<trkpt lat="46.52822832" lon="6.99840794"><ele>1505.081299</ele><time>2007-06-17T14:18:43Z</time></trkpt>
<trkpt lat="46.52820116" lon="6.99831708"><ele>1506.523193</ele><time>2007-06-17T14:18:48Z</time></trkpt>
<trkpt lat="46.52808649" lon="6.99797334"><ele>1509.407227</ele><time>2007-06-17T14:19:05Z</time></trkpt>
<trkpt lat="46.52804618" lon="6.99786396"><ele>1508.445801</ele><time>2007-06-17T14:19:11Z</time></trkpt>
<trkpt lat="46.52803872" lon="6.99784627"><ele>1511.810547</ele><time>2007-06-17T14:19:12Z</time></trkpt>
<trkpt lat="46.52781408" lon="6.99759314"><ele>1512.771729</ele><time>2007-06-17T14:19:31Z</time></trkpt>
<trkpt lat="46.52777435" lon="6.99756145"><ele>1513.252441</ele><time>2007-06-17T14:19:34Z</time></trkpt>
<trkpt lat="46.52769883" lon="6.99724646"><ele>1513.73291</ele><time>2007-06-17T14:19:49Z</time></trkpt>
<trkpt lat="46.52762675" lon="6.99699375"><ele>1513.252441</ele><time>2007-06-17T14:19:58Z</time></trkpt>
<trkpt lat="46.52736582" lon="6.99689903"><ele>1511.810547</ele><time>2007-06-17T14:20:09Z</time></trkpt>
<trkpt lat="46.52739088" lon="6.99680390"><ele>1511.810547</ele><time>2007-06-17T14:20:13Z</time></trkpt>
<trkpt lat="46.52754117" lon="6.99659385"><ele>1512.291016</ele><time>2007-06-17T14:20:29Z</time></trkpt>
<trkpt lat="46.52760093" lon="6.99630886"><ele>1511.329834</ele><time>2007-06-17T14:20:47Z</time></trkpt>
<trkpt lat="46.52760487" lon="6.99629579"><ele>1511.810547</ele><time>2007-06-17T14:20:48Z</time></trkpt>
<trkpt lat="46.52761200" lon="6.99588809"><ele>1509.407227</ele><time>2007-06-17T14:21:05Z</time></trkpt>
<trkpt lat="46.52760319" lon="6.99587024"><ele>1509.887695</ele><time>2007-06-17T14:21:12Z</time></trkpt>
<trkpt lat="46.52759967" lon="6.99598339"><ele>1509.887695</ele><time>2007-06-17T14:21:17Z</time></trkpt>
<trkpt lat="46.52752122" lon="6.99662679"><ele>1510.368408</ele><time>2007-06-17T14:21:38Z</time></trkpt>
<trkpt lat="46.52745886" lon="6.99673785"><ele>1510.849121</ele><time>2007-06-17T14:21:42Z</time></trkpt>
<trkpt lat="46.52736657" lon="6.99688755"><ele>1510.849121</ele><time>2007-06-17T14:21:47Z</time></trkpt>
<trkpt lat="46.52741619" lon="6.99699668"><ele>1511.329834</ele><time>2007-06-17T14:21:52Z</time></trkpt>
<trkpt lat="46.52772314" lon="6.99708084"><ele>1514.213623</ele><time>2007-06-17T14:22:06Z</time></trkpt>
<trkpt lat="46.52790226" lon="6.99710112"><ele>1517.0979</ele><time>2007-06-17T14:22:15Z</time></trkpt>
<trkpt lat="46.52800242" lon="6.99686693"><ele>1518.059082</ele><time>2007-06-17T14:22:27Z</time></trkpt>
<trkpt lat="46.52799396" lon="6.99659209"><ele>1518.539795</ele><time>2007-06-17T14:22:38Z</time></trkpt>
<trkpt lat="46.52797342" lon="6.99618263"><ele>1520.943115</ele><time>2007-06-17T14:22:56Z</time></trkpt>
<trkpt lat="46.52799195" lon="6.99591366"><ele>1522.38501</ele><time>2007-06-17T14:23:08Z</time></trkpt>
<trkpt lat="46.52800209" lon="6.99553865"><ele>1524.78833</ele><time>2007-06-17T14:23:26Z</time></trkpt>
<trkpt lat="46.52803319" lon="6.99532575"><ele>1527.672119</ele><time>2007-06-17T14:23:40Z</time></trkpt>
<trkpt lat="46.52807434" lon="6.99513238"><ele>1528.633545</ele><time>2007-06-17T14:23:54Z</time></trkpt>
<trkpt lat="46.52811089" lon="6.99504554"><ele>1529.114014</ele><time>2007-06-17T14:24:07Z</time></trkpt>
<trkpt lat="46.52811608" lon="6.99504797"><ele>1528.152832</ele><time>2007-06-17T14:25:14Z</time></trkpt>
<trkpt lat="46.52809965" lon="6.99505007"><ele>1528.152832</ele><time>2007-06-17T14:28:44Z</time></trkpt>
<trkpt lat="46.52810225" lon="6.99505007"><ele>1531.036865</ele><time>2007-06-17T14:29:03Z</time></trkpt>
<trkpt lat="46.52810259" lon="6.99505015"><ele>1525.749512</ele><time>2007-06-17T14:29:05Z</time></trkpt>
<trkpt lat="46.52810267" lon="6.99505015"><ele>1529.594727</ele><time>2007-06-17T14:29:06Z</time></trkpt>
<trkpt lat="46.52810292" lon="6.99505032"><ele>1525.749512</ele><time>2007-06-17T14:29:07Z</time></trkpt>
<trkpt lat="46.52810326" lon="6.99505032"><ele>1530.556152</ele><time>2007-06-17T14:29:08Z</time></trkpt>
<trkpt lat="46.52810343" lon="6.99505024"><ele>1525.749512</ele><time>2007-06-17T14:29:09Z</time></trkpt>
<trkpt lat="46.52810359" lon="6.99505049"><ele>1532.479004</ele><time>2007-06-17T14:29:10Z</time></trkpt>
<trkpt lat="46.52810368" lon="6.99505057"><ele>1525.749512</ele><time>2007-06-17T14:29:11Z</time></trkpt>
<trkpt lat="46.52810376" lon="6.99505066"><ele>1531.036865</ele><time>2007-06-17T14:29:12Z</time></trkpt>
<trkpt lat="46.52810418" lon="6.99505107"><ele>1528.152832</ele><time>2007-06-17T14:29:15Z</time></trkpt>
<trkpt lat="46.52810485" lon="6.99506172"><ele>1527.672119</ele><time>2007-06-17T14:29:38Z</time></trkpt>
<trkpt lat="46.52810862" lon="6.99501067"><ele>1528.152832</ele><time>2007-06-17T14:29:52Z</time></trkpt>
<trkpt lat="46.52812053" lon="6.99492669"><ele>1528.152832</ele><time>2007-06-17T14:30:03Z</time></trkpt>
<trkpt lat="46.52814534" lon="6.99475075"><ele>1529.594727</ele><time>2007-06-17T14:30:14Z</time></trkpt>
<trkpt lat="46.52817786" lon="6.99462293"><ele>1530.075439</ele><time>2007-06-17T14:30:24Z</time></trkpt>
<trkpt lat="46.52817819" lon="6.99460214"><ele>1530.556152</ele><time>2007-06-17T14:30:26Z</time></trkpt>
<trkpt lat="46.52820242" lon="6.99450474"><ele>1530.556152</ele><time>2007-06-17T14:30:38Z</time></trkpt>
<trkpt lat="46.52820585" lon="6.99447708"><ele>1530.556152</ele><time>2007-06-17T14:30:40Z</time></trkpt>
<trkpt lat="46.52826788" lon="6.99420090"><ele>1531.036865</ele><time>2007-06-17T14:30:57Z</time></trkpt>
<trkpt lat="46.52827626" lon="6.99394198"><ele>1532.479004</ele><time>2007-06-17T14:31:11Z</time></trkpt>
<trkpt lat="46.52828816" lon="6.99378859"><ele>1534.882324</ele><time>2007-06-17T14:31:20Z</time></trkpt>
<trkpt lat="46.52832136" lon="6.99349799"><ele>1535.843506</ele><time>2007-06-17T14:31:37Z</time></trkpt>
<trkpt lat="46.52834214" lon="6.99341845"><ele>1534.882324</ele><time>2007-06-17T14:31:50Z</time></trkpt>
<trkpt lat="46.52838263" lon="6.99317604"><ele>1536.804688</ele><time>2007-06-17T14:32:09Z</time></trkpt>
<trkpt lat="46.52850945" lon="6.99278486"><ele>1537.766113</ele><time>2007-06-17T14:32:22Z</time></trkpt>
<trkpt lat="46.52862537" lon="6.99262208"><ele>1537.766113</ele><time>2007-06-17T14:32:30Z</time></trkpt>
<trkpt lat="46.52868429" lon="6.99226535"><ele>1540.169434</ele><time>2007-06-17T14:32:44Z</time></trkpt>
<trkpt lat="46.52871195" lon="6.99209847"><ele>1540.169434</ele><time>2007-06-17T14:32:57Z</time></trkpt>
<trkpt lat="46.52877155" lon="6.99191222"><ele>1541.130615</ele><time>2007-06-17T14:33:11Z</time></trkpt>
<trkpt lat="46.52886434" lon="6.99177777"><ele>1542.092041</ele><time>2007-06-17T14:33:23Z</time></trkpt>
<trkpt lat="46.52888085" lon="6.99165188"><ele>1543.053223</ele><time>2007-06-17T14:33:34Z</time></trkpt>
<trkpt lat="46.52891513" lon="6.99151634"><ele>1543.053223</ele><time>2007-06-17T14:33:39Z</time></trkpt>
<trkpt lat="46.52905930" lon="6.99123228"><ele>1541.611328</ele><time>2007-06-17T14:33:51Z</time></trkpt>
<trkpt lat="46.52912065" lon="6.99117067"><ele>1543.053223</ele><time>2007-06-17T14:33:54Z</time></trkpt>
<trkpt lat="46.52912820" lon="6.99103824"><ele>1543.053223</ele><time>2007-06-17T14:33:59Z</time></trkpt>
<trkpt lat="46.52907782" lon="6.99077362"><ele>1543.533936</ele><time>2007-06-17T14:34:08Z</time></trkpt>
<trkpt lat="46.52908838" lon="6.99070129"><ele>1543.533936</ele><time>2007-06-17T14:34:11Z</time></trkpt>
<trkpt lat="46.52911328" lon="6.99064823"><ele>1545.456543</ele><time>2007-06-17T14:34:14Z</time></trkpt>
<trkpt lat="46.52914253" lon="6.99057765"><ele>1544.97583</ele><time>2007-06-17T14:34:17Z</time></trkpt>
<trkpt lat="46.52915762" lon="6.99039820"><ele>1544.97583</ele><time>2007-06-17T14:34:24Z</time></trkpt>
<trkpt lat="46.52918167" lon="6.99030298"><ele>1544.97583</ele><time>2007-06-17T14:34:28Z</time></trkpt>
<trkpt lat="46.52921068" lon="6.98998874"><ele>1544.495117</ele><time>2007-06-17T14:34:40Z</time></trkpt>
<trkpt lat="46.52925443" lon="6.98983066"><ele>1545.456543</ele><time>2007-06-17T14:34:50Z</time></trkpt>
<trkpt lat="46.52939902" lon="6.98943545"><ele>1543.533936</ele><time>2007-06-17T14:35:01Z</time></trkpt>
<trkpt lat="46.52949608" lon="6.98931986"><ele>1543.533936</ele><time>2007-06-17T14:35:07Z</time></trkpt>
<trkpt lat="46.52945492" lon="6.98919464"><ele>1540.649902</ele><time>2007-06-17T14:35:12Z</time></trkpt>
<trkpt lat="46.52938049" lon="6.98910194"><ele>1538.246826</ele><time>2007-06-17T14:35:16Z</time></trkpt>
<trkpt lat="46.52936532" lon="6.98909665"><ele>1538.246826</ele><time>2007-06-17T14:35:17Z</time></trkpt>
<trkpt lat="46.52934990" lon="6.98906807"><ele>1536.804688</ele><time>2007-06-17T14:35:19Z</time></trkpt>
<trkpt lat="46.52938737" lon="6.98904762"><ele>1535.843506</ele><time>2007-06-17T14:35:32Z</time></trkpt>
<trkpt lat="46.52939164" lon="6.98904603"><ele>1535.843506</ele><time>2007-06-17T14:35:33Z</time></trkpt>
<trkpt lat="46.52957202" lon="6.98914116"><ele>1536.804688</ele><time>2007-06-17T14:35:44Z</time></trkpt>
<trkpt lat="46.52963396" lon="6.98918073"><ele>1538.246826</ele><time>2007-06-17T14:35:47Z</time></trkpt>
<trkpt lat="46.52977419" lon="6.98917989"><ele>1536.324219</ele><time>2007-06-17T14:35:52Z</time></trkpt>
<trkpt lat="46.53008642" lon="6.98908743"><ele>1536.804688</ele><time>2007-06-17T14:36:03Z</time></trkpt>
<trkpt lat="46.53050073" lon="6.98893899"><ele>1538.727539</ele><time>2007-06-17T14:36:18Z</time></trkpt>
<trkpt lat="46.53069419" lon="6.98888895"><ele>1542.092041</ele><time>2007-06-17T14:36:28Z</time></trkpt>
<trkpt lat="46.53090935" lon="6.98877563"><ele>1545.456543</ele><time>2007-06-17T14:36:39Z</time></trkpt>
<trkpt lat="46.53104958" lon="6.98877127"><ele>1548.340576</ele><time>2007-06-17T14:36:47Z</time></trkpt>
<trkpt lat="46.53121102" lon="6.98875568"><ele>1548.821289</ele><time>2007-06-17T14:36:55Z</time></trkpt>
<trkpt lat="46.53134823" lon="6.98872768"><ele>1545.937256</ele><time>2007-06-17T14:36:58Z</time></trkpt>
<trkpt lat="46.53149567" lon="6.98874990"><ele>1545.456543</ele><time>2007-06-17T14:37:01Z</time></trkpt>
<trkpt lat="46.53164989" lon="6.98882542"><ele>1543.533936</ele><time>2007-06-17T14:37:04Z</time></trkpt>
<trkpt lat="46.53182373" lon="6.98886716"><ele>1542.572754</ele><time>2007-06-17T14:37:07Z</time></trkpt>
<trkpt lat="46.53194167" lon="6.98890563"><ele>1542.092041</ele><time>2007-06-17T14:37:09Z</time></trkpt>
<trkpt lat="46.53226973" lon="6.98899582"><ele>1538.246826</ele><time>2007-06-17T14:37:14Z</time></trkpt>
<trkpt lat="46.53250166" lon="6.98898266"><ele>1536.804688</ele><time>2007-06-17T14:37:17Z</time></trkpt>
<trkpt lat="46.53265798" lon="6.98898274"><ele>1533.920898</ele><time>2007-06-17T14:37:19Z</time></trkpt>
<trkpt lat="46.53273736" lon="6.98898786"><ele>1532.959473</ele><time>2007-06-17T14:37:20Z</time></trkpt>
<trkpt lat="46.53318739" lon="6.98893639"><ele>1525.749512</ele><time>2007-06-17T14:37:25Z</time></trkpt>
<trkpt lat="46.53349542" lon="6.98892466"><ele>1521.904297</ele><time>2007-06-17T14:37:28Z</time></trkpt>
<trkpt lat="46.53380706" lon="6.98892860"><ele>1518.059082</ele><time>2007-06-17T14:37:31Z</time></trkpt>
<trkpt lat="46.53400772" lon="6.98893983"><ele>1514.213623</ele><time>2007-06-17T14:37:33Z</time></trkpt>
<trkpt lat="46.53430109" lon="6.98899213"><ele>1510.368408</ele><time>2007-06-17T14:37:36Z</time></trkpt>
<trkpt lat="46.53460544" lon="6.98907947"><ele>1506.04248</ele><time>2007-06-17T14:37:39Z</time></trkpt>
<trkpt lat="46.53481683" lon="6.98916757"><ele>1502.197266</ele><time>2007-06-17T14:37:41Z</time></trkpt>
<trkpt lat="46.53512713" lon="6.98931467"><ele>1498.83252</ele><time>2007-06-17T14:37:44Z</time></trkpt>
<trkpt lat="46.53540985" lon="6.98933973"><ele>1496.909912</ele><time>2007-06-17T14:37:47Z</time></trkpt>
<trkpt lat="46.53574839" lon="6.98929824"><ele>1493.54541</ele><time>2007-06-17T14:37:52Z</time></trkpt>
<trkpt lat="46.53598778" lon="6.98935976"><ele>1490.180908</ele><time>2007-06-17T14:37:55Z</time></trkpt>
<trkpt lat="46.53630420" lon="6.98935272"><ele>1486.335693</ele><time>2007-06-17T14:37:59Z</time></trkpt>
<trkpt lat="46.53658616" lon="6.98923973"><ele>1482.490234</ele><time>2007-06-17T14:38:03Z</time></trkpt>
<trkpt lat="46.53665448" lon="6.98921124"><ele>1482.009521</ele><time>2007-06-17T14:38:04Z</time></trkpt>
<trkpt lat="46.53677375" lon="6.98916614"><ele>1480.567627</ele><time>2007-06-17T14:38:06Z</time></trkpt>
<trkpt lat="46.53700174" lon="6.98919372"><ele>1476.241699</ele><time>2007-06-17T14:38:10Z</time></trkpt>
<trkpt lat="46.53714616" lon="6.98927888"><ele>1474.319092</ele><time>2007-06-17T14:38:12Z</time></trkpt>
<trkpt lat="46.53756576" lon="6.98942975"><ele>1468.55127</ele><time>2007-06-17T14:38:18Z</time></trkpt>
<trkpt lat="46.53786273" lon="6.98945615"><ele>1465.186523</ele><time>2007-06-17T14:38:23Z</time></trkpt>
<trkpt lat="46.53793858" lon="6.98931542"><ele>1463.263916</ele><time>2007-06-17T14:38:29Z</time></trkpt>
<trkpt lat="46.53783574" lon="6.98923487"><ele>1462.783203</ele><time>2007-06-17T14:38:32Z</time></trkpt>
<trkpt lat="46.53761865" lon="6.98910294"><ele>1458.937988</ele><time>2007-06-17T14:38:36Z</time></trkpt>
<trkpt lat="46.53737976" lon="6.98886263"><ele>1457.496094</ele><time>2007-06-17T14:38:44Z</time></trkpt>
<trkpt lat="46.53761228" lon="6.98885953"><ele>1454.131592</ele><time>2007-06-17T14:38:50Z</time></trkpt>
<trkpt lat="46.53784739" lon="6.98877253"><ele>1450.766602</ele><time>2007-06-17T14:38:54Z</time></trkpt>
<trkpt lat="46.53809926" lon="6.98887403"><ele>1448.363281</ele><time>2007-06-17T14:38:59Z</time></trkpt>
<trkpt lat="46.53812776" lon="6.98894000"><ele>1448.363281</ele><time>2007-06-17T14:39:00Z</time></trkpt>
<trkpt lat="46.53821879" lon="6.98926002"><ele>1444.037598</ele><time>2007-06-17T14:39:04Z</time></trkpt>
<trkpt lat="46.53835592" lon="6.98956923"><ele>1441.634277</ele><time>2007-06-17T14:39:08Z</time></trkpt>
<trkpt lat="46.53844602" lon="6.98960720"><ele>1440.672852</ele><time>2007-06-17T14:39:10Z</time></trkpt>
<trkpt lat="46.53877853" lon="6.98968079"><ele>1437.789063</ele><time>2007-06-17T14:39:17Z</time></trkpt>
<trkpt lat="46.53884970" lon="6.98971088"><ele>1437.789063</ele><time>2007-06-17T14:39:19Z</time></trkpt>
<trkpt lat="46.53893678" lon="6.98973024"><ele>1434.905029</ele><time>2007-06-17T14:39:21Z</time></trkpt>
<trkpt lat="46.53911146" lon="6.98987156"><ele>1437.789063</ele><time>2007-06-17T14:39:26Z</time></trkpt>
<trkpt lat="46.53915245" lon="6.98996083"><ele>1439.71167</ele><time>2007-06-17T14:39:29Z</time></trkpt>
<trkpt lat="46.53926527" lon="6.99019795"><ele>1442.595703</ele><time>2007-06-17T14:39:39Z</time></trkpt>
<trkpt lat="46.53941497" lon="6.99048738"><ele>1445.960205</ele><time>2007-06-17T14:39:53Z</time></trkpt>
<trkpt lat="46.53944163" lon="6.99052024"><ele>1446.921387</ele><time>2007-06-17T14:39:55Z</time></trkpt>
<trkpt lat="46.53962829" lon="6.99069869"><ele>1450.286133</ele><time>2007-06-17T14:40:09Z</time></trkpt>
<trkpt lat="46.53964254" lon="6.99070849"><ele>1450.766602</ele><time>2007-06-17T14:40:10Z</time></trkpt>
<trkpt lat="46.53982225" lon="6.99084202"><ele>1454.131592</ele><time>2007-06-17T14:40:23Z</time></trkpt>
<trkpt lat="46.53983574" lon="6.99085300"><ele>1454.131592</ele><time>2007-06-17T14:40:24Z</time></trkpt>
<trkpt lat="46.54005619" lon="6.99100127"><ele>1456.534668</ele><time>2007-06-17T14:40:40Z</time></trkpt>
<trkpt lat="46.54036766" lon="6.99118978"><ele>1458.457275</ele><time>2007-06-17T14:40:59Z</time></trkpt>
<trkpt lat="46.54062029" lon="6.99120596"><ele>1461.341309</ele><time>2007-06-17T14:41:14Z</time></trkpt>
<trkpt lat="46.54081115" lon="6.99124158"><ele>1464.705811</ele><time>2007-06-17T14:41:25Z</time></trkpt>
<trkpt lat="46.54095213" lon="6.99127469"><ele>1465.186523</ele><time>2007-06-17T14:41:34Z</time></trkpt>
<trkpt lat="46.54114416" lon="6.99158977"><ele>1465.186523</ele><time>2007-06-17T14:41:50Z</time></trkpt>
<trkpt lat="46.54117232" lon="6.99165448"><ele>1464.225098</ele><time>2007-06-17T14:41:52Z</time></trkpt>
<trkpt lat="46.54126704" lon="6.99176906"><ele>1460.860596</ele><time>2007-06-17T14:41:56Z</time></trkpt>
<trkpt lat="46.54131565" lon="6.99182639"><ele>1459.418701</ele><time>2007-06-17T14:41:58Z</time></trkpt>
<trkpt lat="46.54145588" lon="6.99203518"><ele>1456.534668</ele><time>2007-06-17T14:42:04Z</time></trkpt>
<trkpt lat="46.54149285" lon="6.99208983"><ele>1455.092773</ele><time>2007-06-17T14:42:06Z</time></trkpt>
<trkpt lat="46.54156376" lon="6.99209570"><ele>1453.650879</ele><time>2007-06-17T14:42:08Z</time></trkpt>
<trkpt lat="46.54161103" lon="6.99207583"><ele>1452.689453</ele><time>2007-06-17T14:42:09Z</time></trkpt>
<trkpt lat="46.54185327" lon="6.99222109"><ele>1450.766602</ele><time>2007-06-17T14:42:15Z</time></trkpt>
<trkpt lat="46.54191739" lon="6.99259115"><ele>1446.440918</ele><time>2007-06-17T14:42:19Z</time></trkpt>
<trkpt lat="46.54196248" lon="6.99276826"><ele>1444.998779</ele><time>2007-06-17T14:42:21Z</time></trkpt>
<trkpt lat="46.54198579" lon="6.99294143"><ele>1444.518066</ele><time>2007-06-17T14:42:23Z</time></trkpt>
<trkpt lat="46.54189794" lon="6.99317814"><ele>1442.11499</ele><time>2007-06-17T14:42:26Z</time></trkpt>
<trkpt lat="46.54190079" lon="6.99332499"><ele>1441.153564</ele><time>2007-06-17T14:42:28Z</time></trkpt>
<trkpt lat="46.54192627" lon="6.99338433"><ele>1440.672852</ele><time>2007-06-17T14:42:29Z</time></trkpt>
<trkpt lat="46.54200934" lon="6.99354485"><ele>1436.347168</ele><time>2007-06-17T14:42:32Z</time></trkpt>
<trkpt lat="46.54221813" lon="6.99392715"><ele>1435.385498</ele><time>2007-06-17T14:42:42Z</time></trkpt>
<trkpt lat="46.54224378" lon="6.99395154"><ele>1435.866211</ele><time>2007-06-17T14:42:48Z</time></trkpt>
<trkpt lat="46.54223305" lon="6.99386663"><ele>1435.866211</ele><time>2007-06-17T14:42:58Z</time></trkpt>
<trkpt lat="46.54227966" lon="6.99368089"><ele>1433.943604</ele><time>2007-06-17T14:43:07Z</time></trkpt>
<trkpt lat="46.54228879" lon="6.99363822"><ele>1434.424316</ele><time>2007-06-17T14:43:09Z</time></trkpt>
<trkpt lat="46.54248375" lon="6.99350914"><ele>1435.866211</ele><time>2007-06-17T14:43:20Z</time></trkpt>
<trkpt lat="46.54260923" lon="6.99339263"><ele>1434.905029</ele><time>2007-06-17T14:43:27Z</time></trkpt>
<trkpt lat="46.54284082" lon="6.99303749"><ele>1435.866211</ele><time>2007-06-17T14:43:39Z</time></trkpt>
<trkpt lat="46.54286857" lon="6.99291914"><ele>1433.462891</ele><time>2007-06-17T14:43:42Z</time></trkpt>
<trkpt lat="46.54303093" lon="6.99270733"><ele>1434.424316</ele><time>2007-06-17T14:43:53Z</time></trkpt>
<trkpt lat="46.54318306" lon="6.99229619"><ele>1433.462891</ele><time>2007-06-17T14:44:08Z</time></trkpt>
<trkpt lat="46.54318750" lon="6.99221288"><ele>1433.462891</ele><time>2007-06-17T14:44:20Z</time></trkpt>
<trkpt lat="46.54314039" lon="6.99207852"><ele>1436.827637</ele><time>2007-06-17T14:44:46Z</time></trkpt>
<trkpt lat="46.54312715" lon="6.99201523"><ele>1437.789063</ele><time>2007-06-17T14:44:50Z</time></trkpt>
<trkpt lat="46.54311198" lon="6.99188883"><ele>1438.750488</ele><time>2007-06-17T14:44:57Z</time></trkpt>
<trkpt lat="46.54319119" lon="6.99178423"><ele>1439.230957</ele><time>2007-06-17T14:45:10Z</time></trkpt>
<trkpt lat="46.54323687" lon="6.99169815"><ele>1440.672852</ele><time>2007-06-17T14:45:38Z</time></trkpt>
<trkpt lat="46.54331130" lon="6.99166822"><ele>1441.153564</ele><time>2007-06-17T14:45:45Z</time></trkpt>
<trkpt lat="46.54357919" lon="6.99152665"><ele>1438.269775</ele><time>2007-06-17T14:45:56Z</time></trkpt>
<trkpt lat="46.54384087" lon="6.99135147"><ele>1436.827637</ele><time>2007-06-17T14:46:05Z</time></trkpt>
<trkpt lat="46.54427463" lon="6.99142976"><ele>1436.347168</ele><time>2007-06-17T14:46:16Z</time></trkpt>
<trkpt lat="46.54460932" lon="6.99148449"><ele>1435.385498</ele><time>2007-06-17T14:46:26Z</time></trkpt>
<trkpt lat="46.54491652" lon="6.99155708"><ele>1433.462891</ele><time>2007-06-17T14:46:35Z</time></trkpt>
<trkpt lat="46.54504023" lon="6.99161785"><ele>1429.617676</ele><time>2007-06-17T14:46:41Z</time></trkpt>
<trkpt lat="46.54512372" lon="6.99167183"><ele>1427.695068</ele><time>2007-06-17T14:46:43Z</time></trkpt>
<trkpt lat="46.54523210" lon="6.99170779"><ele>1426.733887</ele><time>2007-06-17T14:46:45Z</time></trkpt>
<trkpt lat="46.54536302" lon="6.99160762"><ele>1424.811279</ele><time>2007-06-17T14:46:49Z</time></trkpt>
<trkpt lat="46.54568883" lon="6.99140185"><ele>1420.485352</ele><time>2007-06-17T14:46:54Z</time></trkpt>
<trkpt lat="46.54599493" lon="6.99123848"><ele>1420.485352</ele><time>2007-06-17T14:47:02Z</time></trkpt>
<trkpt lat="46.54607238" lon="6.99112759"><ele>1420.485352</ele><time>2007-06-17T14:47:19Z</time></trkpt>
<trkpt lat="46.54602259" lon="6.99077739"><ele>1416.15918</ele><time>2007-06-17T14:47:30Z</time></trkpt>
<trkpt lat="46.54605587" lon="6.99058947"><ele>1414.236572</ele><time>2007-06-17T14:47:33Z</time></trkpt>
<trkpt lat="46.54607574" lon="6.99050674"><ele>1413.755859</ele><time>2007-06-17T14:47:34Z</time></trkpt>
<trkpt lat="46.54627648" lon="6.99008237"><ele>1409.910645</ele><time>2007-06-17T14:47:39Z</time></trkpt>
<trkpt lat="46.54638042" lon="6.98991557"><ele>1408.949463</ele><time>2007-06-17T14:47:41Z</time></trkpt>
<trkpt lat="46.54688249" lon="6.98935272"><ele>1407.026855</ele><time>2007-06-17T14:47:48Z</time></trkpt>
<trkpt lat="46.54701853" lon="6.98920294"><ele>1407.507568</ele><time>2007-06-17T14:47:50Z</time></trkpt>
<trkpt lat="46.54717737" lon="6.98869038"><ele>1407.507568</ele><time>2007-06-17T14:47:59Z</time></trkpt>
<trkpt lat="46.54711308" lon="6.98840129"><ele>1404.143066</ele><time>2007-06-17T14:48:05Z</time></trkpt>
<trkpt lat="46.54707888" lon="6.98837304"><ele>1404.143066</ele><time>2007-06-17T14:48:06Z</time></trkpt>
<trkpt lat="46.54695407" lon="6.98826215"><ele>1401.258789</ele><time>2007-06-17T14:48:10Z</time></trkpt>
<trkpt lat="46.54691837" lon="6.98822837"><ele>1400.297607</ele><time>2007-06-17T14:48:11Z</time></trkpt>
<trkpt lat="46.54673095" lon="6.98808244"><ele>1397.894287</ele><time>2007-06-17T14:48:15Z</time></trkpt>
<trkpt lat="46.54663933" lon="6.98800164"><ele>1395.97168</ele><time>2007-06-17T14:48:17Z</time></trkpt>
<trkpt lat="46.54649902" lon="6.98787793"><ele>1392.126465</ele><time>2007-06-17T14:48:20Z</time></trkpt>
<trkpt lat="46.54644932" lon="6.98784524"><ele>1391.645752</ele><time>2007-06-17T14:48:21Z</time></trkpt>
<trkpt lat="46.54628025" lon="6.98774507"><ele>1387.800293</ele><time>2007-06-17T14:48:24Z</time></trkpt>
<trkpt lat="46.54622284" lon="6.98771104"><ele>1387.800293</ele><time>2007-06-17T14:48:25Z</time></trkpt>
<trkpt lat="46.54617146" lon="6.98767525"><ele>1387.31958</ele><time>2007-06-17T14:48:26Z</time></trkpt>
<trkpt lat="46.54589209" lon="6.98735439"><ele>1383.955078</ele><time>2007-06-17T14:48:34Z</time></trkpt>
<trkpt lat="46.54571909" lon="6.98715205"><ele>1379.62915</ele><time>2007-06-17T14:48:39Z</time></trkpt>
<trkpt lat="46.54562529" lon="6.98703378"><ele>1376.264648</ele><time>2007-06-17T14:48:41Z</time></trkpt>
<trkpt lat="46.54557802" lon="6.98697704"><ele>1375.783936</ele><time>2007-06-17T14:48:42Z</time></trkpt>
<trkpt lat="46.54533947" lon="6.98672784"><ele>1372.900146</ele><time>2007-06-17T14:48:47Z</time></trkpt>
<trkpt lat="46.54508885" lon="6.98649449"><ele>1370.015869</ele><time>2007-06-17T14:48:52Z</time></trkpt>
<trkpt lat="46.54498952" lon="6.98640665"><ele>1368.093262</ele><time>2007-06-17T14:48:54Z</time></trkpt>
<trkpt lat="46.54476816" lon="6.98621554"><ele>1365.209473</ele><time>2007-06-17T14:48:59Z</time></trkpt>
<trkpt lat="46.54470127" lon="6.98616358"><ele>1364.248047</ele><time>2007-06-17T14:49:01Z</time></trkpt>
<trkpt lat="46.54466556" lon="6.98614337"><ele>1363.286865</ele><time>2007-06-17T14:49:03Z</time></trkpt>
<trkpt lat="46.54460312" lon="6.98610147"><ele>1359.922119</ele><time>2007-06-17T14:49:10Z</time></trkpt>
<trkpt lat="46.54457613" lon="6.98607967"><ele>1359.922119</ele><time>2007-06-17T14:49:11Z</time></trkpt>
<trkpt lat="46.54444537" lon="6.98595889"><ele>1358.960938</ele><time>2007-06-17T14:49:22Z</time></trkpt>
<trkpt lat="46.54427170" lon="6.98582746"><ele>1355.596191</ele><time>2007-06-17T14:49:37Z</time></trkpt>
<trkpt lat="46.54423105" lon="6.98579779"><ele>1356.076904</ele><time>2007-06-17T14:49:38Z</time></trkpt>
<trkpt lat="46.54419140" lon="6.98577097"><ele>1354.634766</ele><time>2007-06-17T14:49:39Z</time></trkpt>
<trkpt lat="46.54396567" lon="6.98571246"><ele>1351.750977</ele><time>2007-06-17T14:49:44Z</time></trkpt>
<trkpt lat="46.54383467" lon="6.98565840"><ele>1349.347656</ele><time>2007-06-17T14:49:47Z</time></trkpt>
<trkpt lat="46.54380776" lon="6.98558849"><ele>1349.347656</ele><time>2007-06-17T14:49:51Z</time></trkpt>
<trkpt lat="46.54394757" lon="6.98560090"><ele>1345.502441</ele><time>2007-06-17T14:49:57Z</time></trkpt>
<trkpt lat="46.54397682" lon="6.98558774"><ele>1344.060547</ele><time>2007-06-17T14:49:58Z</time></trkpt>
<trkpt lat="46.54404044" lon="6.98555295"><ele>1342.618652</ele><time>2007-06-17T14:50:00Z</time></trkpt>
<trkpt lat="46.54417983" lon="6.98552395"><ele>1339.734375</ele><time>2007-06-17T14:50:04Z</time></trkpt>
<trkpt lat="46.54445434" lon="6.98553887"><ele>1335.88916</ele><time>2007-06-17T14:50:10Z</time></trkpt>
<trkpt lat="46.54459356" lon="6.98552596"><ele>1332.043945</ele><time>2007-06-17T14:50:13Z</time></trkpt>
<trkpt lat="46.54473723" lon="6.98551783"><ele>1328.679443</ele><time>2007-06-17T14:50:16Z</time></trkpt>
<trkpt lat="46.54488953" lon="6.98552286"><ele>1324.834229</ele><time>2007-06-17T14:50:19Z</time></trkpt>
<trkpt lat="46.54504283" lon="6.98553049"><ele>1320.027344</ele><time>2007-06-17T14:50:23Z</time></trkpt>
<trkpt lat="46.54509824" lon="6.98553057"><ele>1319.066162</ele><time>2007-06-17T14:50:25Z</time></trkpt>
<trkpt lat="46.54522313" lon="6.98555228"><ele>1315.70166</ele><time>2007-06-17T14:50:30Z</time></trkpt>
<trkpt lat="46.54537316" lon="6.98556033"><ele>1312.817627</ele><time>2007-06-17T14:50:35Z</time></trkpt>
<trkpt lat="46.54548984" lon="6.98553636"><ele>1308.491699</ele><time>2007-06-17T14:50:39Z</time></trkpt>
<trkpt lat="46.54563795" lon="6.98554315"><ele>1305.607666</ele><time>2007-06-17T14:50:43Z</time></trkpt>
<trkpt lat="46.54566309" lon="6.98552135"><ele>1305.126953</ele><time>2007-06-17T14:50:46Z</time></trkpt>
<trkpt lat="46.54543242" lon="6.98530535"><ele>1301.762451</ele><time>2007-06-17T14:50:59Z</time></trkpt>
<trkpt lat="46.54506806" lon="6.98504032"><ele>1297.917236</ele><time>2007-06-17T14:51:11Z</time></trkpt>
<trkpt lat="46.54499765" lon="6.98500486"><ele>1297.436523</ele><time>2007-06-17T14:51:13Z</time></trkpt>
<trkpt lat="46.54491895" lon="6.98494384"><ele>1296.475342</ele><time>2007-06-17T14:51:15Z</time></trkpt>
<trkpt lat="46.54483362" lon="6.98488098"><ele>1295.513916</ele><time>2007-06-17T14:51:17Z</time></trkpt>
<trkpt lat="46.54462005" lon="6.98473438"><ele>1291.668457</ele><time>2007-06-17T14:51:22Z</time></trkpt>
<trkpt lat="46.54452274" lon="6.98466020"><ele>1289.74585</ele><time>2007-06-17T14:51:25Z</time></trkpt>
<trkpt lat="46.54435996" lon="6.98446766"><ele>1286.381348</ele><time>2007-06-17T14:51:29Z</time></trkpt>
<trkpt lat="46.54419199" lon="6.98427505"><ele>1284.45874</ele><time>2007-06-17T14:51:33Z</time></trkpt>
<trkpt lat="46.54405469" lon="6.98412275"><ele>1281.574707</ele><time>2007-06-17T14:51:37Z</time></trkpt>
<trkpt lat="46.54400390" lon="6.98401026"><ele>1278.690918</ele><time>2007-06-17T14:51:39Z</time></trkpt>
<trkpt lat="46.54390583" lon="6.98383735"><ele>1274.845459</ele><time>2007-06-17T14:51:42Z</time></trkpt>
<trkpt lat="46.54382033" lon="6.98372335"><ele>1272.442139</ele><time>2007-06-17T14:51:44Z</time></trkpt>
<trkpt lat="46.54371589" lon="6.98361363"><ele>1271.480713</ele><time>2007-06-17T14:51:46Z</time></trkpt>
<trkpt lat="46.54346745" lon="6.98335648"><ele>1268.596924</ele><time>2007-06-17T14:51:51Z</time></trkpt>
<trkpt lat="46.54335036" lon="6.98326386"><ele>1267.155029</ele><time>2007-06-17T14:51:54Z</time></trkpt>
<trkpt lat="46.54330283" lon="6.98323678"><ele>1266.674316</ele><time>2007-06-17T14:51:55Z</time></trkpt>
<trkpt lat="46.54312262" lon="6.98314140"><ele>1262.348389</ele><time>2007-06-17T14:51:59Z</time></trkpt>
<trkpt lat="46.54305532" lon="6.98306973"><ele>1260.906494</ele><time>2007-06-17T14:52:02Z</time></trkpt>
<trkpt lat="46.54298139" lon="6.98278684"><ele>1257.541748</ele><time>2007-06-17T14:52:07Z</time></trkpt>
<trkpt lat="46.54284837" lon="6.98240379"><ele>1252.735107</ele><time>2007-06-17T14:52:11Z</time></trkpt>
<trkpt lat="46.54270018" lon="6.98217798"><ele>1248.889893</ele><time>2007-06-17T14:52:15Z</time></trkpt>
<trkpt lat="46.54265776" lon="6.98211436"><ele>1247.928711</ele><time>2007-06-17T14:52:16Z</time></trkpt>
<trkpt lat="46.54258065" lon="6.98190465"><ele>1246.486816</ele><time>2007-06-17T14:52:18Z</time></trkpt>
<trkpt lat="46.54244369" lon="6.98159586"><ele>1243.121826</ele><time>2007-06-17T14:52:22Z</time></trkpt>
<trkpt lat="46.54230589" lon="6.98133443"><ele>1239.757324</ele><time>2007-06-17T14:52:26Z</time></trkpt>
<trkpt lat="46.54226675" lon="6.98125899"><ele>1239.757324</ele><time>2007-06-17T14:52:27Z</time></trkpt>
<trkpt lat="46.54215912" lon="6.98090133"><ele>1236.392822</ele><time>2007-06-17T14:52:32Z</time></trkpt>
<trkpt lat="46.54213440" lon="6.98081399"><ele>1234.950928</ele><time>2007-06-17T14:52:33Z</time></trkpt>
<trkpt lat="46.54212828" lon="6.98039180"><ele>1230.625</ele><time>2007-06-17T14:52:37Z</time></trkpt>
<trkpt lat="46.54218125" lon="6.98016875"><ele>1229.663574</ele><time>2007-06-17T14:52:39Z</time></trkpt>
<trkpt lat="46.54249633" lon="6.98019616"><ele>1232.066895</ele><time>2007-06-17T14:52:44Z</time></trkpt>
<trkpt lat="46.54276044" lon="6.98032499"><ele>1233.028076</ele><time>2007-06-17T14:52:54Z</time></trkpt>
<trkpt lat="46.54274493" lon="6.98033312"><ele>1232.066895</ele><time>2007-06-17T14:53:09Z</time></trkpt>
</trkseg></trk></gpx>